<?xml version="1.0" encoding="UTF-8" standalone="no" ?>
<gpx xmlns="http://www.topografix.com/GPX/1/1" xmlns:xsi="http://www.w3.org/2001/XMLSchema-instance" xsi:schemaLocation="http://www.topografix.com/GPX/1/1 http://www.topografix.com/GPX/1/1/gpx.xsd" version="1.1" creator="VisuGPX - https://www.visugpx.com">
  <metadata>
    <name>T-14-09-11-grignan-r-am</name>
    <desc><![CDATA[VTT à Grignan]]></desc>
  </metadata>
  <trk>
    <name><![CDATA[T-14-09-11-Grignan-am]]></name>
    <trkseg>
      <trkpt lat="44.46382" lon="4.84159">
        <ele>264.72</ele>
        <time>2014-09-11T11:09:34Z</time>
      </trkpt>
      <trkpt lat="44.46382" lon="4.8416">
        <ele>264.72</ele>
        <time>2014-09-11T11:09:35Z</time>
      </trkpt>
      <trkpt lat="44.46378" lon="4.84161">
        <ele>264.72</ele>
        <time>2014-09-11T11:10:02Z</time>
      </trkpt>
      <trkpt lat="44.46375" lon="4.84163">
        <ele>264.72</ele>
        <time>2014-09-11T11:10:04Z</time>
      </trkpt>
      <trkpt lat="44.46368" lon="4.84167">
        <ele>264.72</ele>
        <time>2014-09-11T11:10:10Z</time>
      </trkpt>
      <trkpt lat="44.46358" lon="4.84198">
        <ele>264.72</ele>
        <time>2014-09-11T11:10:21Z</time>
      </trkpt>
      <trkpt lat="44.46349" lon="4.84227">
        <ele>264.72</ele>
        <time>2014-09-11T11:10:32Z</time>
      </trkpt>
      <trkpt lat="44.46347" lon="4.84228">
        <ele>264.72</ele>
        <time>2014-09-11T11:10:33Z</time>
      </trkpt>
      <trkpt lat="44.46345" lon="4.8423">
        <ele>264.72</ele>
        <time>2014-09-11T11:10:35Z</time>
      </trkpt>
      <trkpt lat="44.46344" lon="4.84231">
        <ele>264.72</ele>
        <time>2014-09-11T11:10:36Z</time>
      </trkpt>
      <trkpt lat="44.46343" lon="4.84232">
        <ele>264.72</ele>
        <time>2014-09-11T11:10:37Z</time>
      </trkpt>
      <trkpt lat="44.46341" lon="4.84233">
        <ele>264.72</ele>
        <time>2014-09-11T11:10:38Z</time>
      </trkpt>
      <trkpt lat="44.4634" lon="4.84235">
        <ele>264.72</ele>
        <time>2014-09-11T11:10:39Z</time>
      </trkpt>
      <trkpt lat="44.46338" lon="4.84236">
        <ele>264.72</ele>
        <time>2014-09-11T11:10:40Z</time>
      </trkpt>
      <trkpt lat="44.46335" lon="4.84238">
        <ele>264.72</ele>
        <time>2014-09-11T11:10:41Z</time>
      </trkpt>
      <trkpt lat="44.46331" lon="4.84241">
        <ele>264.72</ele>
        <time>2014-09-11T11:10:43Z</time>
      </trkpt>
      <trkpt lat="44.46329" lon="4.84243">
        <ele>264.72</ele>
        <time>2014-09-11T11:10:44Z</time>
      </trkpt>
      <trkpt lat="44.46328" lon="4.84244">
        <ele>264.72</ele>
        <time>2014-09-11T11:10:45Z</time>
      </trkpt>
      <trkpt lat="44.46316" lon="4.84252">
        <ele>264.72</ele>
        <time>2014-09-11T11:10:52Z</time>
      </trkpt>
      <trkpt lat="44.46316" lon="4.84254">
        <ele>264.72</ele>
        <time>2014-09-11T11:10:53Z</time>
      </trkpt>
      <trkpt lat="44.46315" lon="4.84256">
        <ele>264.72</ele>
        <time>2014-09-11T11:10:54Z</time>
      </trkpt>
      <trkpt lat="44.46316" lon="4.84258">
        <ele>264.72</ele>
        <time>2014-09-11T11:10:55Z</time>
      </trkpt>
      <trkpt lat="44.46317" lon="4.8426">
        <ele>264.72</ele>
        <time>2014-09-11T11:10:56Z</time>
      </trkpt>
      <trkpt lat="44.46319" lon="4.84264">
        <ele>264.72</ele>
        <time>2014-09-11T11:10:57Z</time>
      </trkpt>
      <trkpt lat="44.46321" lon="4.84266">
        <ele>264.72</ele>
        <time>2014-09-11T11:10:58Z</time>
      </trkpt>
      <trkpt lat="44.46324" lon="4.84268">
        <ele>264.72</ele>
        <time>2014-09-11T11:10:59Z</time>
      </trkpt>
      <trkpt lat="44.46325" lon="4.8427">
        <ele>264.72</ele>
        <time>2014-09-11T11:11:00Z</time>
      </trkpt>
      <trkpt lat="44.46327" lon="4.84271">
        <ele>264.72</ele>
        <time>2014-09-11T11:11:01Z</time>
      </trkpt>
      <trkpt lat="44.46329" lon="4.84274">
        <ele>264.72</ele>
        <time>2014-09-11T11:11:15Z</time>
      </trkpt>
      <trkpt lat="44.46335" lon="4.84281">
        <ele>264.72</ele>
        <time>2014-09-11T11:11:29Z</time>
      </trkpt>
      <trkpt lat="44.46335" lon="4.84283">
        <ele>264.72</ele>
        <time>2014-09-11T11:11:30Z</time>
      </trkpt>
      <trkpt lat="44.46333" lon="4.84285">
        <ele>264.72</ele>
        <time>2014-09-11T11:11:31Z</time>
      </trkpt>
      <trkpt lat="44.46331" lon="4.84287">
        <ele>264.72</ele>
        <time>2014-09-11T11:11:32Z</time>
      </trkpt>
      <trkpt lat="44.46329" lon="4.84288">
        <ele>264.72</ele>
        <time>2014-09-11T11:11:33Z</time>
      </trkpt>
      <trkpt lat="44.46328" lon="4.84288">
        <ele>264.72</ele>
        <time>2014-09-11T11:11:34Z</time>
      </trkpt>
      <trkpt lat="44.46325" lon="4.84289">
        <ele>264.72</ele>
        <time>2014-09-11T11:11:35Z</time>
      </trkpt>
      <trkpt lat="44.46312" lon="4.84291">
        <ele>264.72</ele>
        <time>2014-09-11T11:11:42Z</time>
      </trkpt>
      <trkpt lat="44.4631" lon="4.84294">
        <ele>264.72</ele>
        <time>2014-09-11T11:11:44Z</time>
      </trkpt>
      <trkpt lat="44.4631" lon="4.84296">
        <ele>264.72</ele>
        <time>2014-09-11T11:11:45Z</time>
      </trkpt>
      <trkpt lat="44.4631" lon="4.84298">
        <ele>264.72</ele>
        <time>2014-09-11T11:11:46Z</time>
      </trkpt>
      <trkpt lat="44.4631" lon="4.84303">
        <ele>264.72</ele>
        <time>2014-09-11T11:11:48Z</time>
      </trkpt>
      <trkpt lat="44.46309" lon="4.84311">
        <ele>264.72</ele>
        <time>2014-09-11T11:12:02Z</time>
      </trkpt>
      <trkpt lat="44.46309" lon="4.84317">
        <ele>264.72</ele>
        <time>2014-09-11T11:12:06Z</time>
      </trkpt>
      <trkpt lat="44.46308" lon="4.8432">
        <ele>264.72</ele>
        <time>2014-09-11T11:12:07Z</time>
      </trkpt>
      <trkpt lat="44.46306" lon="4.84322">
        <ele>264.72</ele>
        <time>2014-09-11T11:12:08Z</time>
      </trkpt>
      <trkpt lat="44.46294" lon="4.84333">
        <ele>264.72</ele>
        <time>2014-09-11T11:12:14Z</time>
      </trkpt>
      <trkpt lat="44.46275" lon="4.84346">
        <ele>264.72</ele>
        <time>2014-09-11T11:12:27Z</time>
      </trkpt>
      <trkpt lat="44.46273" lon="4.84346">
        <ele>264.72</ele>
        <time>2014-09-11T11:12:28Z</time>
      </trkpt>
      <trkpt lat="44.46255" lon="4.8435">
        <ele>264.72</ele>
        <time>2014-09-11T11:12:35Z</time>
      </trkpt>
      <trkpt lat="44.46252" lon="4.84352">
        <ele>264.72</ele>
        <time>2014-09-11T11:12:36Z</time>
      </trkpt>
      <trkpt lat="44.4625" lon="4.84352">
        <ele>264.72</ele>
        <time>2014-09-11T11:12:37Z</time>
      </trkpt>
      <trkpt lat="44.46248" lon="4.84353">
        <ele>264.72</ele>
        <time>2014-09-11T11:12:38Z</time>
      </trkpt>
      <trkpt lat="44.46246" lon="4.84353">
        <ele>264.72</ele>
        <time>2014-09-11T11:12:39Z</time>
      </trkpt>
      <trkpt lat="44.46244" lon="4.84354">
        <ele>264.72</ele>
        <time>2014-09-11T11:12:40Z</time>
      </trkpt>
      <trkpt lat="44.46241" lon="4.84357">
        <ele>264.72</ele>
        <time>2014-09-11T11:12:42Z</time>
      </trkpt>
      <trkpt lat="44.46239" lon="4.84358">
        <ele>264.72</ele>
        <time>2014-09-11T11:12:43Z</time>
      </trkpt>
      <trkpt lat="44.46238" lon="4.8436">
        <ele>264.72</ele>
        <time>2014-09-11T11:12:44Z</time>
      </trkpt>
      <trkpt lat="44.46236" lon="4.84361">
        <ele>264.72</ele>
        <time>2014-09-11T11:12:45Z</time>
      </trkpt>
      <trkpt lat="44.46234" lon="4.84363">
        <ele>264.72</ele>
        <time>2014-09-11T11:12:46Z</time>
      </trkpt>
      <trkpt lat="44.46232" lon="4.84365">
        <ele>264.72</ele>
        <time>2014-09-11T11:12:47Z</time>
      </trkpt>
      <trkpt lat="44.46231" lon="4.84366">
        <ele>264.72</ele>
        <time>2014-09-11T11:12:48Z</time>
      </trkpt>
      <trkpt lat="44.46227" lon="4.84371">
        <ele>264.72</ele>
        <time>2014-09-11T11:12:50Z</time>
      </trkpt>
      <trkpt lat="44.46226" lon="4.84373">
        <ele>264.72</ele>
        <time>2014-09-11T11:12:51Z</time>
      </trkpt>
      <trkpt lat="44.46224" lon="4.84375">
        <ele>264.72</ele>
        <time>2014-09-11T11:12:52Z</time>
      </trkpt>
      <trkpt lat="44.46223" lon="4.84378">
        <ele>264.72</ele>
        <time>2014-09-11T11:12:53Z</time>
      </trkpt>
      <trkpt lat="44.46221" lon="4.8438">
        <ele>264.72</ele>
        <time>2014-09-11T11:12:54Z</time>
      </trkpt>
      <trkpt lat="44.4622" lon="4.84382">
        <ele>264.72</ele>
        <time>2014-09-11T11:12:55Z</time>
      </trkpt>
      <trkpt lat="44.46214" lon="4.84387">
        <ele>264.72</ele>
        <time>2014-09-11T11:13:10Z</time>
      </trkpt>
      <trkpt lat="44.46206" lon="4.84402">
        <ele>264.72</ele>
        <time>2014-09-11T11:13:18Z</time>
      </trkpt>
      <trkpt lat="44.46206" lon="4.84404">
        <ele>264.72</ele>
        <time>2014-09-11T11:13:19Z</time>
      </trkpt>
      <trkpt lat="44.46202" lon="4.84435">
        <ele>264.72</ele>
        <time>2014-09-11T11:13:32Z</time>
      </trkpt>
      <trkpt lat="44.46197" lon="4.84469">
        <ele>264.72</ele>
        <time>2014-09-11T11:13:45Z</time>
      </trkpt>
      <trkpt lat="44.46195" lon="4.84476">
        <ele>264.72</ele>
        <time>2014-09-11T11:13:48Z</time>
      </trkpt>
      <trkpt lat="44.46187" lon="4.84498">
        <ele>264.72</ele>
        <time>2014-09-11T11:13:58Z</time>
      </trkpt>
      <trkpt lat="44.46185" lon="4.84502">
        <ele>264.72</ele>
        <time>2014-09-11T11:14:00Z</time>
      </trkpt>
      <trkpt lat="44.4618" lon="4.84512">
        <ele>264.72</ele>
        <time>2014-09-11T11:14:05Z</time>
      </trkpt>
      <trkpt lat="44.46176" lon="4.84521">
        <ele>264.72</ele>
        <time>2014-09-11T11:14:09Z</time>
      </trkpt>
      <trkpt lat="44.46163" lon="4.84551">
        <ele>264.72</ele>
        <time>2014-09-11T11:14:23Z</time>
      </trkpt>
      <trkpt lat="44.46155" lon="4.84571">
        <ele>264.72</ele>
        <time>2014-09-11T11:14:31Z</time>
      </trkpt>
      <trkpt lat="44.46152" lon="4.84578">
        <ele>264.72</ele>
        <time>2014-09-11T11:14:51Z</time>
      </trkpt>
      <trkpt lat="44.46152" lon="4.84589">
        <ele>264.72</ele>
        <time>2014-09-11T11:15:18Z</time>
      </trkpt>
      <trkpt lat="44.46151" lon="4.84587">
        <ele>264.72</ele>
        <time>2014-09-11T11:15:49Z</time>
      </trkpt>
      <trkpt lat="44.4615" lon="4.84588">
        <ele>264.72</ele>
        <time>2014-09-11T11:16:01Z</time>
      </trkpt>
      <trkpt lat="44.46147" lon="4.8461">
        <ele>264.72</ele>
        <time>2014-09-11T11:16:09Z</time>
      </trkpt>
      <trkpt lat="44.46144" lon="4.84631">
        <ele>264.72</ele>
        <time>2014-09-11T11:16:16Z</time>
      </trkpt>
      <trkpt lat="44.4614" lon="4.84649">
        <ele>264.72</ele>
        <time>2014-09-11T11:16:21Z</time>
      </trkpt>
      <trkpt lat="44.46134" lon="4.84685">
        <ele>264.72</ele>
        <time>2014-09-11T11:16:30Z</time>
      </trkpt>
      <trkpt lat="44.46132" lon="4.84692">
        <ele>264.72</ele>
        <time>2014-09-11T11:16:32Z</time>
      </trkpt>
      <trkpt lat="44.46129" lon="4.84709">
        <ele>264.72</ele>
        <time>2014-09-11T11:16:37Z</time>
      </trkpt>
      <trkpt lat="44.46123" lon="4.84741">
        <ele>264.72</ele>
        <time>2014-09-11T11:16:45Z</time>
      </trkpt>
      <trkpt lat="44.46126" lon="4.84794">
        <ele>264.72</ele>
        <time>2014-09-11T11:16:57Z</time>
      </trkpt>
      <trkpt lat="44.4613" lon="4.84818">
        <ele>264.72</ele>
        <time>2014-09-11T11:17:03Z</time>
      </trkpt>
      <trkpt lat="44.4613" lon="4.84822">
        <ele>264.72</ele>
        <time>2014-09-11T11:17:04Z</time>
      </trkpt>
      <trkpt lat="44.46134" lon="4.84848">
        <ele>264.72</ele>
        <time>2014-09-11T11:17:13Z</time>
      </trkpt>
      <trkpt lat="44.46136" lon="4.84851">
        <ele>264.72</ele>
        <time>2014-09-11T11:17:23Z</time>
      </trkpt>
      <trkpt lat="44.46139" lon="4.84885">
        <ele>264.72</ele>
        <time>2014-09-11T11:17:32Z</time>
      </trkpt>
      <trkpt lat="44.4614" lon="4.84896">
        <ele>264.72</ele>
        <time>2014-09-11T11:17:35Z</time>
      </trkpt>
      <trkpt lat="44.46144" lon="4.84948">
        <ele>264.72</ele>
        <time>2014-09-11T11:17:48Z</time>
      </trkpt>
      <trkpt lat="44.46149" lon="4.8497">
        <ele>264.72</ele>
        <time>2014-09-11T11:17:59Z</time>
      </trkpt>
      <trkpt lat="44.46152" lon="4.84979">
        <ele>264.72</ele>
        <time>2014-09-11T11:18:03Z</time>
      </trkpt>
      <trkpt lat="44.46165" lon="4.85002">
        <ele>264.72</ele>
        <time>2014-09-11T11:18:16Z</time>
      </trkpt>
      <trkpt lat="44.46169" lon="4.85015">
        <ele>264.72</ele>
        <time>2014-09-11T11:18:33Z</time>
      </trkpt>
      <trkpt lat="44.46173" lon="4.85026">
        <ele>264.72</ele>
        <time>2014-09-11T11:18:48Z</time>
      </trkpt>
      <trkpt lat="44.46177" lon="4.85031">
        <ele>264.72</ele>
        <time>2014-09-11T11:19:12Z</time>
      </trkpt>
      <trkpt lat="44.46189" lon="4.85048">
        <ele>264.72</ele>
        <time>2014-09-11T11:19:31Z</time>
      </trkpt>
      <trkpt lat="44.46199" lon="4.85058">
        <ele>264.72</ele>
        <time>2014-09-11T11:19:52Z</time>
      </trkpt>
      <trkpt lat="44.46203" lon="4.85073">
        <ele>264.72</ele>
        <time>2014-09-11T11:20:11Z</time>
      </trkpt>
      <trkpt lat="44.46206" lon="4.85081">
        <ele>264.72</ele>
        <time>2014-09-11T11:20:31Z</time>
      </trkpt>
      <trkpt lat="44.46211" lon="4.85084">
        <ele>264.72</ele>
        <time>2014-09-11T11:20:56Z</time>
      </trkpt>
      <trkpt lat="44.46215" lon="4.85096">
        <ele>264.72</ele>
        <time>2014-09-11T11:21:17Z</time>
      </trkpt>
      <trkpt lat="44.46225" lon="4.85108">
        <ele>264.72</ele>
        <time>2014-09-11T11:21:36Z</time>
      </trkpt>
      <trkpt lat="44.46235" lon="4.85117">
        <ele>264.72</ele>
        <time>2014-09-11T11:21:57Z</time>
      </trkpt>
      <trkpt lat="44.4624" lon="4.85128">
        <ele>264.73</ele>
        <time>2014-09-11T11:22:21Z</time>
      </trkpt>
      <trkpt lat="44.46241" lon="4.85136">
        <ele>264.73</ele>
        <time>2014-09-11T11:22:50Z</time>
      </trkpt>
      <trkpt lat="44.46245" lon="4.85136">
        <ele>264.73</ele>
        <time>2014-09-11T11:23:14Z</time>
      </trkpt>
      <trkpt lat="44.46248" lon="4.85127">
        <ele>264.73</ele>
        <time>2014-09-11T11:23:33Z</time>
      </trkpt>
      <trkpt lat="44.46247" lon="4.85108">
        <ele>264.72</ele>
        <time>2014-09-11T11:23:48Z</time>
      </trkpt>
      <trkpt lat="44.46244" lon="4.85097">
        <ele>264.72</ele>
        <time>2014-09-11T11:24:04Z</time>
      </trkpt>
      <trkpt lat="44.46244" lon="4.85095">
        <ele>264.72</ele>
        <time>2014-09-11T11:24:29Z</time>
      </trkpt>
      <trkpt lat="44.46245" lon="4.85098">
        <ele>264.72</ele>
        <time>2014-09-11T11:25:13Z</time>
      </trkpt>
      <trkpt lat="44.46246" lon="4.85102">
        <ele>264.72</ele>
        <time>2014-09-11T11:25:50Z</time>
      </trkpt>
      <trkpt lat="44.4626" lon="4.85118">
        <ele>264.73</ele>
        <time>2014-09-11T11:25:59Z</time>
      </trkpt>
      <trkpt lat="44.46267" lon="4.85124">
        <ele>264.73</ele>
        <time>2014-09-11T11:26:03Z</time>
      </trkpt>
      <trkpt lat="44.46282" lon="4.85136">
        <ele>264.73</ele>
        <time>2014-09-11T11:26:10Z</time>
      </trkpt>
      <trkpt lat="44.46293" lon="4.85143">
        <ele>264.73</ele>
        <time>2014-09-11T11:26:14Z</time>
      </trkpt>
      <trkpt lat="44.46311" lon="4.85156">
        <ele>264.73</ele>
        <time>2014-09-11T11:26:21Z</time>
      </trkpt>
      <trkpt lat="44.46321" lon="4.85165">
        <ele>264.73</ele>
        <time>2014-09-11T11:26:26Z</time>
      </trkpt>
      <trkpt lat="44.46351" lon="4.85214">
        <ele>264.73</ele>
        <time>2014-09-11T11:26:43Z</time>
      </trkpt>
      <trkpt lat="44.46376" lon="4.8526">
        <ele>264.73</ele>
        <time>2014-09-11T11:26:59Z</time>
      </trkpt>
      <trkpt lat="44.46385" lon="4.85279">
        <ele>264.73</ele>
        <time>2014-09-11T11:27:08Z</time>
      </trkpt>
      <trkpt lat="44.46387" lon="4.85287">
        <ele>264.73</ele>
        <time>2014-09-11T11:27:21Z</time>
      </trkpt>
      <trkpt lat="44.46386" lon="4.85284">
        <ele>264.73</ele>
        <time>2014-09-11T11:27:38Z</time>
      </trkpt>
      <trkpt lat="44.46365" lon="4.85246">
        <ele>264.73</ele>
        <time>2014-09-11T11:27:52Z</time>
      </trkpt>
      <trkpt lat="44.4636" lon="4.85237">
        <ele>264.73</ele>
        <time>2014-09-11T11:28:01Z</time>
      </trkpt>
      <trkpt lat="44.46342" lon="4.85201">
        <ele>264.73</ele>
        <time>2014-09-11T11:28:13Z</time>
      </trkpt>
      <trkpt lat="44.46341" lon="4.85198">
        <ele>264.73</ele>
        <time>2014-09-11T11:28:14Z</time>
      </trkpt>
      <trkpt lat="44.46338" lon="4.85196">
        <ele>264.73</ele>
        <time>2014-09-11T11:28:31Z</time>
      </trkpt>
      <trkpt lat="44.46336" lon="4.85195">
        <ele>264.73</ele>
        <time>2014-09-11T11:29:20Z</time>
      </trkpt>
      <trkpt lat="44.46334" lon="4.85193">
        <ele>264.73</ele>
        <time>2014-09-11T11:29:46Z</time>
      </trkpt>
      <trkpt lat="44.4633" lon="4.85184">
        <ele>264.73</ele>
        <time>2014-09-11T11:30:04Z</time>
      </trkpt>
      <trkpt lat="44.46327" lon="4.8518">
        <ele>264.73</ele>
        <time>2014-09-11T11:30:16Z</time>
      </trkpt>
      <trkpt lat="44.4632" lon="4.85168">
        <ele>264.73</ele>
        <time>2014-09-11T11:30:20Z</time>
      </trkpt>
      <trkpt lat="44.46303" lon="4.85153">
        <ele>264.73</ele>
        <time>2014-09-11T11:30:27Z</time>
      </trkpt>
      <trkpt lat="44.46287" lon="4.85142">
        <ele>264.73</ele>
        <time>2014-09-11T11:30:32Z</time>
      </trkpt>
      <trkpt lat="44.46265" lon="4.8512">
        <ele>264.73</ele>
        <time>2014-09-11T11:30:39Z</time>
      </trkpt>
      <trkpt lat="44.4625" lon="4.85106">
        <ele>264.72</ele>
        <time>2014-09-11T11:30:45Z</time>
      </trkpt>
      <trkpt lat="44.46249" lon="4.85104">
        <ele>264.72</ele>
        <time>2014-09-11T11:30:46Z</time>
      </trkpt>
      <trkpt lat="44.46245" lon="4.85102">
        <ele>264.72</ele>
        <time>2014-09-11T11:30:58Z</time>
      </trkpt>
      <trkpt lat="44.46242" lon="4.85113">
        <ele>264.72</ele>
        <time>2014-09-11T11:31:15Z</time>
      </trkpt>
      <trkpt lat="44.46244" lon="4.85115">
        <ele>264.72</ele>
        <time>2014-09-11T11:31:19Z</time>
      </trkpt>
      <trkpt lat="44.46245" lon="4.85139">
        <ele>264.73</ele>
        <time>2014-09-11T11:31:33Z</time>
      </trkpt>
      <trkpt lat="44.46246" lon="4.85142">
        <ele>264.73</ele>
        <time>2014-09-11T11:31:36Z</time>
      </trkpt>
      <trkpt lat="44.46252" lon="4.8516">
        <ele>264.73</ele>
        <time>2014-09-11T11:31:47Z</time>
      </trkpt>
      <trkpt lat="44.46255" lon="4.85177">
        <ele>264.73</ele>
        <time>2014-09-11T11:31:53Z</time>
      </trkpt>
      <trkpt lat="44.46263" lon="4.85212">
        <ele>264.73</ele>
        <time>2014-09-11T11:32:01Z</time>
      </trkpt>
      <trkpt lat="44.46276" lon="4.85253">
        <ele>264.73</ele>
        <time>2014-09-11T11:32:11Z</time>
      </trkpt>
      <trkpt lat="44.46283" lon="4.85288">
        <ele>264.73</ele>
        <time>2014-09-11T11:32:24Z</time>
      </trkpt>
      <trkpt lat="44.46269" lon="4.8529">
        <ele>264.73</ele>
        <time>2014-09-11T11:32:37Z</time>
      </trkpt>
      <trkpt lat="44.46262" lon="4.85287">
        <ele>264.73</ele>
        <time>2014-09-11T11:32:49Z</time>
      </trkpt>
      <trkpt lat="44.46251" lon="4.85282">
        <ele>264.73</ele>
        <time>2014-09-11T11:33:02Z</time>
      </trkpt>
      <trkpt lat="44.46233" lon="4.85279">
        <ele>264.73</ele>
        <time>2014-09-11T11:33:18Z</time>
      </trkpt>
      <trkpt lat="44.46218" lon="4.85275">
        <ele>264.73</ele>
        <time>2014-09-11T11:33:30Z</time>
      </trkpt>
      <trkpt lat="44.46206" lon="4.85272">
        <ele>264.73</ele>
        <time>2014-09-11T11:33:42Z</time>
      </trkpt>
      <trkpt lat="44.46194" lon="4.85267">
        <ele>264.73</ele>
        <time>2014-09-11T11:34:02Z</time>
      </trkpt>
      <trkpt lat="44.46183" lon="4.8526">
        <ele>264.73</ele>
        <time>2014-09-11T11:34:13Z</time>
      </trkpt>
      <trkpt lat="44.46171" lon="4.85252">
        <ele>264.73</ele>
        <time>2014-09-11T11:34:19Z</time>
      </trkpt>
      <trkpt lat="44.46162" lon="4.85248">
        <ele>264.73</ele>
        <time>2014-09-11T11:34:25Z</time>
      </trkpt>
      <trkpt lat="44.46152" lon="4.85241">
        <ele>264.73</ele>
        <time>2014-09-11T11:34:31Z</time>
      </trkpt>
      <trkpt lat="44.46149" lon="4.85237">
        <ele>264.73</ele>
        <time>2014-09-11T11:34:33Z</time>
      </trkpt>
      <trkpt lat="44.46128" lon="4.85213">
        <ele>264.72</ele>
        <time>2014-09-11T11:34:47Z</time>
      </trkpt>
      <trkpt lat="44.46118" lon="4.85205">
        <ele>264.72</ele>
        <time>2014-09-11T11:34:54Z</time>
      </trkpt>
      <trkpt lat="44.46102" lon="4.85185">
        <ele>264.72</ele>
        <time>2014-09-11T11:35:08Z</time>
      </trkpt>
      <trkpt lat="44.46099" lon="4.85179">
        <ele>264.72</ele>
        <time>2014-09-11T11:35:11Z</time>
      </trkpt>
      <trkpt lat="44.46092" lon="4.85167">
        <ele>264.72</ele>
        <time>2014-09-11T11:35:16Z</time>
      </trkpt>
      <trkpt lat="44.46088" lon="4.85159">
        <ele>264.72</ele>
        <time>2014-09-11T11:35:19Z</time>
      </trkpt>
      <trkpt lat="44.46079" lon="4.85144">
        <ele>264.72</ele>
        <time>2014-09-11T11:35:25Z</time>
      </trkpt>
      <trkpt lat="44.46075" lon="4.85135">
        <ele>264.72</ele>
        <time>2014-09-11T11:35:28Z</time>
      </trkpt>
      <trkpt lat="44.46068" lon="4.85119">
        <ele>264.72</ele>
        <time>2014-09-11T11:35:34Z</time>
      </trkpt>
      <trkpt lat="44.46061" lon="4.85099">
        <ele>264.72</ele>
        <time>2014-09-11T11:35:42Z</time>
      </trkpt>
      <trkpt lat="44.46052" lon="4.85077">
        <ele>264.72</ele>
        <time>2014-09-11T11:35:51Z</time>
      </trkpt>
      <trkpt lat="44.46033" lon="4.8506">
        <ele>264.72</ele>
        <time>2014-09-11T11:36:03Z</time>
      </trkpt>
      <trkpt lat="44.46028" lon="4.85054">
        <ele>264.72</ele>
        <time>2014-09-11T11:36:06Z</time>
      </trkpt>
      <trkpt lat="44.46016" lon="4.85039">
        <ele>264.72</ele>
        <time>2014-09-11T11:36:13Z</time>
      </trkpt>
      <trkpt lat="44.45998" lon="4.85013">
        <ele>264.72</ele>
        <time>2014-09-11T11:36:28Z</time>
      </trkpt>
      <trkpt lat="44.45988" lon="4.85009">
        <ele>264.72</ele>
        <time>2014-09-11T11:36:50Z</time>
      </trkpt>
      <trkpt lat="44.4598" lon="4.85005">
        <ele>264.72</ele>
        <time>2014-09-11T11:37:25Z</time>
      </trkpt>
      <trkpt lat="44.45975" lon="4.85001">
        <ele>264.72</ele>
        <time>2014-09-11T11:37:48Z</time>
      </trkpt>
      <trkpt lat="44.45974" lon="4.84997">
        <ele>264.72</ele>
        <time>2014-09-11T11:38:45Z</time>
      </trkpt>
      <trkpt lat="44.45977" lon="4.84999">
        <ele>264.72</ele>
        <time>2014-09-11T11:40:03Z</time>
      </trkpt>
      <trkpt lat="44.45976" lon="4.85">
        <ele>264.72</ele>
        <time>2014-09-11T11:41:20Z</time>
      </trkpt>
      <trkpt lat="44.45974" lon="4.84997">
        <ele>264.72</ele>
        <time>2014-09-11T11:41:31Z</time>
      </trkpt>
      <trkpt lat="44.45968" lon="4.84988">
        <ele>264.72</ele>
        <time>2014-09-11T11:41:35Z</time>
      </trkpt>
      <trkpt lat="44.45947" lon="4.84951">
        <ele>264.72</ele>
        <time>2014-09-11T11:41:48Z</time>
      </trkpt>
      <trkpt lat="44.45945" lon="4.84945">
        <ele>264.72</ele>
        <time>2014-09-11T11:41:50Z</time>
      </trkpt>
      <trkpt lat="44.45937" lon="4.84928">
        <ele>264.72</ele>
        <time>2014-09-11T11:41:56Z</time>
      </trkpt>
      <trkpt lat="44.45934" lon="4.84922">
        <ele>264.72</ele>
        <time>2014-09-11T11:41:58Z</time>
      </trkpt>
      <trkpt lat="44.4592" lon="4.84882">
        <ele>264.72</ele>
        <time>2014-09-11T11:42:13Z</time>
      </trkpt>
      <trkpt lat="44.45916" lon="4.84875">
        <ele>264.72</ele>
        <time>2014-09-11T11:42:16Z</time>
      </trkpt>
      <trkpt lat="44.45898" lon="4.8484">
        <ele>264.72</ele>
        <time>2014-09-11T11:42:28Z</time>
      </trkpt>
      <trkpt lat="44.45892" lon="4.8483">
        <ele>264.72</ele>
        <time>2014-09-11T11:42:33Z</time>
      </trkpt>
      <trkpt lat="44.4589" lon="4.84827">
        <ele>264.72</ele>
        <time>2014-09-11T11:42:35Z</time>
      </trkpt>
      <trkpt lat="44.45882" lon="4.84812">
        <ele>264.72</ele>
        <time>2014-09-11T11:42:40Z</time>
      </trkpt>
      <trkpt lat="44.45866" lon="4.84778">
        <ele>264.72</ele>
        <time>2014-09-11T11:42:53Z</time>
      </trkpt>
      <trkpt lat="44.45853" lon="4.84756">
        <ele>264.72</ele>
        <time>2014-09-11T11:43:08Z</time>
      </trkpt>
      <trkpt lat="44.45816" lon="4.84722">
        <ele>264.72</ele>
        <time>2014-09-11T11:43:30Z</time>
      </trkpt>
      <trkpt lat="44.45803" lon="4.84696">
        <ele>264.72</ele>
        <time>2014-09-11T11:43:50Z</time>
      </trkpt>
      <trkpt lat="44.45799" lon="4.84674">
        <ele>264.72</ele>
        <time>2014-09-11T11:44:12Z</time>
      </trkpt>
      <trkpt lat="44.45796" lon="4.84663">
        <ele>264.72</ele>
        <time>2014-09-11T11:44:35Z</time>
      </trkpt>
      <trkpt lat="44.45784" lon="4.84646">
        <ele>264.72</ele>
        <time>2014-09-11T11:44:57Z</time>
      </trkpt>
      <trkpt lat="44.45774" lon="4.84629">
        <ele>264.72</ele>
        <time>2014-09-11T11:45:19Z</time>
      </trkpt>
      <trkpt lat="44.45759" lon="4.84607">
        <ele>264.72</ele>
        <time>2014-09-11T11:45:39Z</time>
      </trkpt>
      <trkpt lat="44.45755" lon="4.84604">
        <ele>264.72</ele>
        <time>2014-09-11T11:45:44Z</time>
      </trkpt>
      <trkpt lat="44.45752" lon="4.84602">
        <ele>264.72</ele>
        <time>2014-09-11T11:45:46Z</time>
      </trkpt>
      <trkpt lat="44.45747" lon="4.846">
        <ele>264.72</ele>
        <time>2014-09-11T11:45:49Z</time>
      </trkpt>
      <trkpt lat="44.45744" lon="4.84599">
        <ele>264.72</ele>
        <time>2014-09-11T11:45:51Z</time>
      </trkpt>
      <trkpt lat="44.45737" lon="4.84595">
        <ele>264.72</ele>
        <time>2014-09-11T11:46:02Z</time>
      </trkpt>
      <trkpt lat="44.45703" lon="4.84582">
        <ele>264.72</ele>
        <time>2014-09-11T11:46:16Z</time>
      </trkpt>
      <trkpt lat="44.45669" lon="4.84602">
        <ele>264.72</ele>
        <time>2014-09-11T11:46:27Z</time>
      </trkpt>
      <trkpt lat="44.45658" lon="4.84607">
        <ele>264.72</ele>
        <time>2014-09-11T11:46:31Z</time>
      </trkpt>
      <trkpt lat="44.45648" lon="4.84614">
        <ele>264.72</ele>
        <time>2014-09-11T11:46:47Z</time>
      </trkpt>
      <trkpt lat="44.45625" lon="4.84624">
        <ele>264.72</ele>
        <time>2014-09-11T11:46:55Z</time>
      </trkpt>
      <trkpt lat="44.45598" lon="4.84627">
        <ele>264.72</ele>
        <time>2014-09-11T11:47:04Z</time>
      </trkpt>
      <trkpt lat="44.45582" lon="4.84629">
        <ele>264.72</ele>
        <time>2014-09-11T11:47:10Z</time>
      </trkpt>
      <trkpt lat="44.45556" lon="4.84635">
        <ele>264.72</ele>
        <time>2014-09-11T11:47:18Z</time>
      </trkpt>
      <trkpt lat="44.45511" lon="4.8462">
        <ele>264.72</ele>
        <time>2014-09-11T11:47:32Z</time>
      </trkpt>
      <trkpt lat="44.45499" lon="4.84614">
        <ele>264.72</ele>
        <time>2014-09-11T11:47:36Z</time>
      </trkpt>
      <trkpt lat="44.45484" lon="4.84612">
        <ele>264.72</ele>
        <time>2014-09-11T11:47:45Z</time>
      </trkpt>
      <trkpt lat="44.4547" lon="4.84606">
        <ele>264.72</ele>
        <time>2014-09-11T11:47:50Z</time>
      </trkpt>
      <trkpt lat="44.45446" lon="4.84592">
        <ele>264.72</ele>
        <time>2014-09-11T11:47:56Z</time>
      </trkpt>
      <trkpt lat="44.45383" lon="4.84562">
        <ele>264.72</ele>
        <time>2014-09-11T11:48:12Z</time>
      </trkpt>
      <trkpt lat="44.45375" lon="4.84558">
        <ele>264.72</ele>
        <time>2014-09-11T11:48:14Z</time>
      </trkpt>
      <trkpt lat="44.45371" lon="4.84556">
        <ele>264.72</ele>
        <time>2014-09-11T11:48:15Z</time>
      </trkpt>
      <trkpt lat="44.45368" lon="4.84554">
        <ele>264.72</ele>
        <time>2014-09-11T11:48:16Z</time>
      </trkpt>
      <trkpt lat="44.45364" lon="4.84552">
        <ele>264.72</ele>
        <time>2014-09-11T11:48:17Z</time>
      </trkpt>
      <trkpt lat="44.45361" lon="4.8455">
        <ele>264.72</ele>
        <time>2014-09-11T11:48:18Z</time>
      </trkpt>
      <trkpt lat="44.45349" lon="4.84543">
        <ele>264.72</ele>
        <time>2014-09-11T11:48:22Z</time>
      </trkpt>
      <trkpt lat="44.45347" lon="4.8454">
        <ele>264.72</ele>
        <time>2014-09-11T11:48:23Z</time>
      </trkpt>
      <trkpt lat="44.45344" lon="4.84539">
        <ele>264.72</ele>
        <time>2014-09-11T11:48:24Z</time>
      </trkpt>
      <trkpt lat="44.45342" lon="4.84537">
        <ele>264.72</ele>
        <time>2014-09-11T11:48:25Z</time>
      </trkpt>
      <trkpt lat="44.4534" lon="4.84536">
        <ele>264.72</ele>
        <time>2014-09-11T11:48:26Z</time>
      </trkpt>
      <trkpt lat="44.45338" lon="4.84535">
        <ele>264.72</ele>
        <time>2014-09-11T11:48:27Z</time>
      </trkpt>
      <trkpt lat="44.45335" lon="4.84534">
        <ele>264.72</ele>
        <time>2014-09-11T11:48:28Z</time>
      </trkpt>
      <trkpt lat="44.45331" lon="4.84533">
        <ele>264.72</ele>
        <time>2014-09-11T11:48:30Z</time>
      </trkpt>
      <trkpt lat="44.45329" lon="4.84534">
        <ele>264.72</ele>
        <time>2014-09-11T11:48:31Z</time>
      </trkpt>
      <trkpt lat="44.45327" lon="4.84534">
        <ele>264.72</ele>
        <time>2014-09-11T11:48:32Z</time>
      </trkpt>
      <trkpt lat="44.45325" lon="4.84534">
        <ele>264.72</ele>
        <time>2014-09-11T11:48:33Z</time>
      </trkpt>
      <trkpt lat="44.45293" lon="4.84533">
        <ele>264.72</ele>
        <time>2014-09-11T11:48:46Z</time>
      </trkpt>
      <trkpt lat="44.4529" lon="4.84532">
        <ele>264.72</ele>
        <time>2014-09-11T11:48:47Z</time>
      </trkpt>
      <trkpt lat="44.45287" lon="4.84532">
        <ele>264.72</ele>
        <time>2014-09-11T11:48:48Z</time>
      </trkpt>
      <trkpt lat="44.45284" lon="4.84532">
        <ele>264.72</ele>
        <time>2014-09-11T11:48:49Z</time>
      </trkpt>
      <trkpt lat="44.4528" lon="4.84532">
        <ele>264.72</ele>
        <time>2014-09-11T11:48:50Z</time>
      </trkpt>
      <trkpt lat="44.45277" lon="4.84532">
        <ele>264.72</ele>
        <time>2014-09-11T11:48:51Z</time>
      </trkpt>
      <trkpt lat="44.45274" lon="4.84533">
        <ele>264.72</ele>
        <time>2014-09-11T11:48:52Z</time>
      </trkpt>
      <trkpt lat="44.4527" lon="4.84534">
        <ele>264.72</ele>
        <time>2014-09-11T11:48:53Z</time>
      </trkpt>
      <trkpt lat="44.4526" lon="4.84538">
        <ele>264.72</ele>
        <time>2014-09-11T11:48:56Z</time>
      </trkpt>
      <trkpt lat="44.45257" lon="4.8454">
        <ele>264.72</ele>
        <time>2014-09-11T11:48:57Z</time>
      </trkpt>
      <trkpt lat="44.45225" lon="4.84578">
        <ele>264.72</ele>
        <time>2014-09-11T11:49:10Z</time>
      </trkpt>
      <trkpt lat="44.45204" lon="4.84588">
        <ele>264.72</ele>
        <time>2014-09-11T11:49:18Z</time>
      </trkpt>
      <trkpt lat="44.45202" lon="4.84588">
        <ele>264.72</ele>
        <time>2014-09-11T11:49:19Z</time>
      </trkpt>
      <trkpt lat="44.452" lon="4.84588">
        <ele>264.72</ele>
        <time>2014-09-11T11:49:20Z</time>
      </trkpt>
      <trkpt lat="44.45199" lon="4.84587">
        <ele>264.72</ele>
        <time>2014-09-11T11:49:21Z</time>
      </trkpt>
      <trkpt lat="44.45197" lon="4.84587">
        <ele>264.72</ele>
        <time>2014-09-11T11:49:22Z</time>
      </trkpt>
      <trkpt lat="44.45192" lon="4.84586">
        <ele>264.72</ele>
        <time>2014-09-11T11:49:26Z</time>
      </trkpt>
      <trkpt lat="44.4519" lon="4.84586">
        <ele>264.72</ele>
        <time>2014-09-11T11:49:27Z</time>
      </trkpt>
      <trkpt lat="44.45188" lon="4.84586">
        <ele>264.72</ele>
        <time>2014-09-11T11:49:28Z</time>
      </trkpt>
      <trkpt lat="44.45186" lon="4.84585">
        <ele>264.72</ele>
        <time>2014-09-11T11:49:29Z</time>
      </trkpt>
      <trkpt lat="44.45184" lon="4.84585">
        <ele>264.72</ele>
        <time>2014-09-11T11:49:30Z</time>
      </trkpt>
      <trkpt lat="44.45181" lon="4.84584">
        <ele>264.72</ele>
        <time>2014-09-11T11:49:31Z</time>
      </trkpt>
      <trkpt lat="44.45179" lon="4.84584">
        <ele>264.72</ele>
        <time>2014-09-11T11:49:32Z</time>
      </trkpt>
      <trkpt lat="44.45157" lon="4.84576">
        <ele>264.72</ele>
        <time>2014-09-11T11:49:40Z</time>
      </trkpt>
      <trkpt lat="44.45154" lon="4.84575">
        <ele>264.72</ele>
        <time>2014-09-11T11:49:41Z</time>
      </trkpt>
      <trkpt lat="44.45151" lon="4.84575">
        <ele>264.72</ele>
        <time>2014-09-11T11:49:42Z</time>
      </trkpt>
      <trkpt lat="44.45131" lon="4.8457">
        <ele>264.72</ele>
        <time>2014-09-11T11:49:48Z</time>
      </trkpt>
      <trkpt lat="44.45128" lon="4.84569">
        <ele>264.72</ele>
        <time>2014-09-11T11:49:49Z</time>
      </trkpt>
      <trkpt lat="44.45125" lon="4.84568">
        <ele>264.72</ele>
        <time>2014-09-11T11:49:50Z</time>
      </trkpt>
      <trkpt lat="44.45121" lon="4.84567">
        <ele>264.72</ele>
        <time>2014-09-11T11:49:51Z</time>
      </trkpt>
      <trkpt lat="44.45111" lon="4.84564">
        <ele>264.72</ele>
        <time>2014-09-11T11:49:54Z</time>
      </trkpt>
      <trkpt lat="44.45108" lon="4.84564">
        <ele>264.72</ele>
        <time>2014-09-11T11:49:55Z</time>
      </trkpt>
      <trkpt lat="44.45088" lon="4.84561">
        <ele>264.72</ele>
        <time>2014-09-11T11:50:00Z</time>
      </trkpt>
      <trkpt lat="44.45084" lon="4.84561">
        <ele>264.72</ele>
        <time>2014-09-11T11:50:01Z</time>
      </trkpt>
      <trkpt lat="44.4508" lon="4.8456">
        <ele>264.72</ele>
        <time>2014-09-11T11:50:02Z</time>
      </trkpt>
      <trkpt lat="44.45076" lon="4.8456">
        <ele>264.72</ele>
        <time>2014-09-11T11:50:03Z</time>
      </trkpt>
      <trkpt lat="44.45072" lon="4.8456">
        <ele>264.72</ele>
        <time>2014-09-11T11:50:04Z</time>
      </trkpt>
      <trkpt lat="44.45068" lon="4.8456">
        <ele>264.72</ele>
        <time>2014-09-11T11:50:05Z</time>
      </trkpt>
      <trkpt lat="44.45064" lon="4.8456">
        <ele>264.72</ele>
        <time>2014-09-11T11:50:06Z</time>
      </trkpt>
      <trkpt lat="44.4506" lon="4.8456">
        <ele>264.72</ele>
        <time>2014-09-11T11:50:07Z</time>
      </trkpt>
      <trkpt lat="44.4504" lon="4.84559">
        <ele>264.72</ele>
        <time>2014-09-11T11:50:12Z</time>
      </trkpt>
      <trkpt lat="44.45032" lon="4.84559">
        <ele>264.72</ele>
        <time>2014-09-11T11:50:14Z</time>
      </trkpt>
      <trkpt lat="44.45027" lon="4.84559">
        <ele>264.72</ele>
        <time>2014-09-11T11:50:15Z</time>
      </trkpt>
      <trkpt lat="44.45001" lon="4.84555">
        <ele>264.72</ele>
        <time>2014-09-11T11:50:22Z</time>
      </trkpt>
      <trkpt lat="44.44997" lon="4.84554">
        <ele>264.72</ele>
        <time>2014-09-11T11:50:23Z</time>
      </trkpt>
      <trkpt lat="44.44994" lon="4.84553">
        <ele>264.72</ele>
        <time>2014-09-11T11:50:24Z</time>
      </trkpt>
      <trkpt lat="44.4499" lon="4.84552">
        <ele>264.72</ele>
        <time>2014-09-11T11:50:25Z</time>
      </trkpt>
      <trkpt lat="44.44987" lon="4.8455">
        <ele>264.72</ele>
        <time>2014-09-11T11:50:26Z</time>
      </trkpt>
      <trkpt lat="44.44983" lon="4.84549">
        <ele>264.72</ele>
        <time>2014-09-11T11:50:27Z</time>
      </trkpt>
      <trkpt lat="44.4498" lon="4.84547">
        <ele>264.72</ele>
        <time>2014-09-11T11:50:28Z</time>
      </trkpt>
      <trkpt lat="44.44942" lon="4.84521">
        <ele>264.72</ele>
        <time>2014-09-11T11:50:39Z</time>
      </trkpt>
      <trkpt lat="44.44925" lon="4.84513">
        <ele>264.72</ele>
        <time>2014-09-11T11:50:43Z</time>
      </trkpt>
      <trkpt lat="44.4488" lon="4.84496">
        <ele>264.72</ele>
        <time>2014-09-11T11:50:55Z</time>
      </trkpt>
      <trkpt lat="44.44867" lon="4.84495">
        <ele>264.72</ele>
        <time>2014-09-11T11:51:02Z</time>
      </trkpt>
      <trkpt lat="44.44865" lon="4.84496">
        <ele>264.72</ele>
        <time>2014-09-11T11:51:03Z</time>
      </trkpt>
      <trkpt lat="44.44863" lon="4.84497">
        <ele>264.72</ele>
        <time>2014-09-11T11:51:04Z</time>
      </trkpt>
      <trkpt lat="44.44861" lon="4.84497">
        <ele>264.72</ele>
        <time>2014-09-11T11:51:05Z</time>
      </trkpt>
      <trkpt lat="44.44855" lon="4.84497">
        <ele>264.72</ele>
        <time>2014-09-11T11:51:07Z</time>
      </trkpt>
      <trkpt lat="44.44852" lon="4.84498">
        <ele>264.72</ele>
        <time>2014-09-11T11:51:08Z</time>
      </trkpt>
      <trkpt lat="44.44849" lon="4.84498">
        <ele>264.72</ele>
        <time>2014-09-11T11:51:09Z</time>
      </trkpt>
      <trkpt lat="44.44793" lon="4.84504">
        <ele>264.72</ele>
        <time>2014-09-11T11:51:26Z</time>
      </trkpt>
      <trkpt lat="44.4479" lon="4.84504">
        <ele>264.72</ele>
        <time>2014-09-11T11:51:27Z</time>
      </trkpt>
      <trkpt lat="44.44788" lon="4.84503">
        <ele>264.72</ele>
        <time>2014-09-11T11:51:28Z</time>
      </trkpt>
      <trkpt lat="44.44785" lon="4.84503">
        <ele>264.72</ele>
        <time>2014-09-11T11:51:29Z</time>
      </trkpt>
      <trkpt lat="44.44783" lon="4.84503">
        <ele>264.72</ele>
        <time>2014-09-11T11:51:30Z</time>
      </trkpt>
      <trkpt lat="44.4478" lon="4.84502">
        <ele>264.72</ele>
        <time>2014-09-11T11:51:31Z</time>
      </trkpt>
      <trkpt lat="44.44765" lon="4.84501">
        <ele>264.72</ele>
        <time>2014-09-11T11:51:35Z</time>
      </trkpt>
      <trkpt lat="44.44761" lon="4.845">
        <ele>264.72</ele>
        <time>2014-09-11T11:51:36Z</time>
      </trkpt>
      <trkpt lat="44.44757" lon="4.84499">
        <ele>264.72</ele>
        <time>2014-09-11T11:51:37Z</time>
      </trkpt>
      <trkpt lat="44.44696" lon="4.84489">
        <ele>264.72</ele>
        <time>2014-09-11T11:51:50Z</time>
      </trkpt>
      <trkpt lat="44.44667" lon="4.84488">
        <ele>264.72</ele>
        <time>2014-09-11T11:51:56Z</time>
      </trkpt>
      <trkpt lat="44.44662" lon="4.84489">
        <ele>264.72</ele>
        <time>2014-09-11T11:51:57Z</time>
      </trkpt>
      <trkpt lat="44.44657" lon="4.8449">
        <ele>264.72</ele>
        <time>2014-09-11T11:51:58Z</time>
      </trkpt>
      <trkpt lat="44.44652" lon="4.84491">
        <ele>264.72</ele>
        <time>2014-09-11T11:51:59Z</time>
      </trkpt>
      <trkpt lat="44.44648" lon="4.84491">
        <ele>264.72</ele>
        <time>2014-09-11T11:52:00Z</time>
      </trkpt>
      <trkpt lat="44.44643" lon="4.84492">
        <ele>264.72</ele>
        <time>2014-09-11T11:52:01Z</time>
      </trkpt>
      <trkpt lat="44.44639" lon="4.84492">
        <ele>264.72</ele>
        <time>2014-09-11T11:52:02Z</time>
      </trkpt>
      <trkpt lat="44.44606" lon="4.84484">
        <ele>264.72</ele>
        <time>2014-09-11T11:52:08Z</time>
      </trkpt>
      <trkpt lat="44.44601" lon="4.84482">
        <ele>264.72</ele>
        <time>2014-09-11T11:52:09Z</time>
      </trkpt>
      <trkpt lat="44.44595" lon="4.8448">
        <ele>264.72</ele>
        <time>2014-09-11T11:52:10Z</time>
      </trkpt>
      <trkpt lat="44.44586" lon="4.84475">
        <ele>264.72</ele>
        <time>2014-09-11T11:52:12Z</time>
      </trkpt>
      <trkpt lat="44.44582" lon="4.84472">
        <ele>264.72</ele>
        <time>2014-09-11T11:52:13Z</time>
      </trkpt>
      <trkpt lat="44.44574" lon="4.84469">
        <ele>264.72</ele>
        <time>2014-09-11T11:52:15Z</time>
      </trkpt>
      <trkpt lat="44.44569" lon="4.84468">
        <ele>264.72</ele>
        <time>2014-09-11T11:52:16Z</time>
      </trkpt>
      <trkpt lat="44.44564" lon="4.84468">
        <ele>264.72</ele>
        <time>2014-09-11T11:52:17Z</time>
      </trkpt>
      <trkpt lat="44.44533" lon="4.84475">
        <ele>264.71</ele>
        <time>2014-09-11T11:52:27Z</time>
      </trkpt>
      <trkpt lat="44.4453" lon="4.84477">
        <ele>264.71</ele>
        <time>2014-09-11T11:52:49Z</time>
      </trkpt>
      <trkpt lat="44.4453" lon="4.84476">
        <ele>264.71</ele>
        <time>2014-09-11T11:53:56Z</time>
      </trkpt>
      <trkpt lat="44.44533" lon="4.84479">
        <ele>264.71</ele>
        <time>2014-09-11T11:55:21Z</time>
      </trkpt>
      <trkpt lat="44.44533" lon="4.84478">
        <ele>264.71</ele>
        <time>2014-09-11T11:56:30Z</time>
      </trkpt>
      <trkpt lat="44.44531" lon="4.84475">
        <ele>264.71</ele>
        <time>2014-09-11T11:58:02Z</time>
      </trkpt>
      <trkpt lat="44.44531" lon="4.84478">
        <ele>264.71</ele>
        <time>2014-09-11T11:59:55Z</time>
      </trkpt>
      <trkpt lat="44.44531" lon="4.84476">
        <ele>264.71</ele>
        <time>2014-09-11T12:01:18Z</time>
      </trkpt>
      <trkpt lat="44.44528" lon="4.84479">
        <ele>264.71</ele>
        <time>2014-09-11T12:02:48Z</time>
      </trkpt>
      <trkpt lat="44.44528" lon="4.8448">
        <ele>264.71</ele>
        <time>2014-09-11T12:04:28Z</time>
      </trkpt>
      <trkpt lat="44.44527" lon="4.8448">
        <ele>264.71</ele>
        <time>2014-09-11T12:06:15Z</time>
      </trkpt>
      <trkpt lat="44.4453" lon="4.84479">
        <ele>264.71</ele>
        <time>2014-09-11T12:06:26Z</time>
      </trkpt>
      <trkpt lat="44.4453" lon="4.84476">
        <ele>264.71</ele>
        <time>2014-09-11T12:06:40Z</time>
      </trkpt>
      <trkpt lat="44.44528" lon="4.84474">
        <ele>264.71</ele>
        <time>2014-09-11T12:07:09Z</time>
      </trkpt>
      <trkpt lat="44.44526" lon="4.84473">
        <ele>264.71</ele>
        <time>2014-09-11T12:07:10Z</time>
      </trkpt>
      <trkpt lat="44.44497" lon="4.84471">
        <ele>264.71</ele>
        <time>2014-09-11T12:07:18Z</time>
      </trkpt>
      <trkpt lat="44.44492" lon="4.84471">
        <ele>264.71</ele>
        <time>2014-09-11T12:07:19Z</time>
      </trkpt>
      <trkpt lat="44.44488" lon="4.84471">
        <ele>264.71</ele>
        <time>2014-09-11T12:07:20Z</time>
      </trkpt>
      <trkpt lat="44.44451" lon="4.84469">
        <ele>264.71</ele>
        <time>2014-09-11T12:07:28Z</time>
      </trkpt>
      <trkpt lat="44.44446" lon="4.84468">
        <ele>264.71</ele>
        <time>2014-09-11T12:07:29Z</time>
      </trkpt>
      <trkpt lat="44.44442" lon="4.84468">
        <ele>264.71</ele>
        <time>2014-09-11T12:07:30Z</time>
      </trkpt>
      <trkpt lat="44.44415" lon="4.84469">
        <ele>264.71</ele>
        <time>2014-09-11T12:07:39Z</time>
      </trkpt>
      <trkpt lat="44.44402" lon="4.84465">
        <ele>264.71</ele>
        <time>2014-09-11T12:07:46Z</time>
      </trkpt>
      <trkpt lat="44.44401" lon="4.84466">
        <ele>264.71</ele>
        <time>2014-09-11T12:07:47Z</time>
      </trkpt>
      <trkpt lat="44.44399" lon="4.84469">
        <ele>264.71</ele>
        <time>2014-09-11T12:07:48Z</time>
      </trkpt>
      <trkpt lat="44.44398" lon="4.84471">
        <ele>264.71</ele>
        <time>2014-09-11T12:07:49Z</time>
      </trkpt>
      <trkpt lat="44.44397" lon="4.84473">
        <ele>264.71</ele>
        <time>2014-09-11T12:07:50Z</time>
      </trkpt>
      <trkpt lat="44.44396" lon="4.84475">
        <ele>264.71</ele>
        <time>2014-09-11T12:07:51Z</time>
      </trkpt>
      <trkpt lat="44.44394" lon="4.84476">
        <ele>264.71</ele>
        <time>2014-09-11T12:07:52Z</time>
      </trkpt>
      <trkpt lat="44.44392" lon="4.84476">
        <ele>264.71</ele>
        <time>2014-09-11T12:07:53Z</time>
      </trkpt>
      <trkpt lat="44.44391" lon="4.84475">
        <ele>264.71</ele>
        <time>2014-09-11T12:07:54Z</time>
      </trkpt>
      <trkpt lat="44.44389" lon="4.84475">
        <ele>264.71</ele>
        <time>2014-09-11T12:07:55Z</time>
      </trkpt>
      <trkpt lat="44.44387" lon="4.84474">
        <ele>264.71</ele>
        <time>2014-09-11T12:07:56Z</time>
      </trkpt>
      <trkpt lat="44.44384" lon="4.84474">
        <ele>264.71</ele>
        <time>2014-09-11T12:07:57Z</time>
      </trkpt>
      <trkpt lat="44.44381" lon="4.84473">
        <ele>264.71</ele>
        <time>2014-09-11T12:07:58Z</time>
      </trkpt>
      <trkpt lat="44.4435" lon="4.84472">
        <ele>264.71</ele>
        <time>2014-09-11T12:08:12Z</time>
      </trkpt>
      <trkpt lat="44.44347" lon="4.84471">
        <ele>264.71</ele>
        <time>2014-09-11T12:08:13Z</time>
      </trkpt>
      <trkpt lat="44.44345" lon="4.8447">
        <ele>264.71</ele>
        <time>2014-09-11T12:08:14Z</time>
      </trkpt>
      <trkpt lat="44.44343" lon="4.84468">
        <ele>264.71</ele>
        <time>2014-09-11T12:08:15Z</time>
      </trkpt>
      <trkpt lat="44.44341" lon="4.84467">
        <ele>264.71</ele>
        <time>2014-09-11T12:08:16Z</time>
      </trkpt>
      <trkpt lat="44.44339" lon="4.84466">
        <ele>264.71</ele>
        <time>2014-09-11T12:08:17Z</time>
      </trkpt>
      <trkpt lat="44.44338" lon="4.84465">
        <ele>264.71</ele>
        <time>2014-09-11T12:08:18Z</time>
      </trkpt>
      <trkpt lat="44.44336" lon="4.84463">
        <ele>264.71</ele>
        <time>2014-09-11T12:08:19Z</time>
      </trkpt>
      <trkpt lat="44.44335" lon="4.84462">
        <ele>264.71</ele>
        <time>2014-09-11T12:08:20Z</time>
      </trkpt>
      <trkpt lat="44.44333" lon="4.84462">
        <ele>264.71</ele>
        <time>2014-09-11T12:08:21Z</time>
      </trkpt>
      <trkpt lat="44.44332" lon="4.84463">
        <ele>264.71</ele>
        <time>2014-09-11T12:08:22Z</time>
      </trkpt>
      <trkpt lat="44.4433" lon="4.84464">
        <ele>264.71</ele>
        <time>2014-09-11T12:08:23Z</time>
      </trkpt>
      <trkpt lat="44.44329" lon="4.84465">
        <ele>264.71</ele>
        <time>2014-09-11T12:08:24Z</time>
      </trkpt>
      <trkpt lat="44.44324" lon="4.84474">
        <ele>264.71</ele>
        <time>2014-09-11T12:08:36Z</time>
      </trkpt>
      <trkpt lat="44.44325" lon="4.84476">
        <ele>264.71</ele>
        <time>2014-09-11T12:09:18Z</time>
      </trkpt>
      <trkpt lat="44.44324" lon="4.84477">
        <ele>264.71</ele>
        <time>2014-09-11T12:11:18Z</time>
      </trkpt>
      <trkpt lat="44.44323" lon="4.84476">
        <ele>264.71</ele>
        <time>2014-09-11T12:13:36Z</time>
      </trkpt>
      <trkpt lat="44.44324" lon="4.84478">
        <ele>264.71</ele>
        <time>2014-09-11T12:15:39Z</time>
      </trkpt>
      <trkpt lat="44.44325" lon="4.84477">
        <ele>264.71</ele>
        <time>2014-09-11T12:17:11Z</time>
      </trkpt>
      <trkpt lat="44.44329" lon="4.84475">
        <ele>264.71</ele>
        <time>2014-09-11T12:17:55Z</time>
      </trkpt>
      <trkpt lat="44.4433" lon="4.84474">
        <ele>264.71</ele>
        <time>2014-09-11T12:17:56Z</time>
      </trkpt>
      <trkpt lat="44.44331" lon="4.84473">
        <ele>264.71</ele>
        <time>2014-09-11T12:17:57Z</time>
      </trkpt>
      <trkpt lat="44.44334" lon="4.84468">
        <ele>264.71</ele>
        <time>2014-09-11T12:18:12Z</time>
      </trkpt>
      <trkpt lat="44.44334" lon="4.84467">
        <ele>264.71</ele>
        <time>2014-09-11T12:19:05Z</time>
      </trkpt>
      <trkpt lat="44.44343" lon="4.84468">
        <ele>264.71</ele>
        <time>2014-09-11T12:19:20Z</time>
      </trkpt>
      <trkpt lat="44.44346" lon="4.8447">
        <ele>264.71</ele>
        <time>2014-09-11T12:19:22Z</time>
      </trkpt>
      <trkpt lat="44.44353" lon="4.84472">
        <ele>264.71</ele>
        <time>2014-09-11T12:19:26Z</time>
      </trkpt>
      <trkpt lat="44.44356" lon="4.84472">
        <ele>264.71</ele>
        <time>2014-09-11T12:19:28Z</time>
      </trkpt>
      <trkpt lat="44.44359" lon="4.84472">
        <ele>264.71</ele>
        <time>2014-09-11T12:19:29Z</time>
      </trkpt>
      <trkpt lat="44.44361" lon="4.84473">
        <ele>264.71</ele>
        <time>2014-09-11T12:19:30Z</time>
      </trkpt>
      <trkpt lat="44.44389" lon="4.84475">
        <ele>264.71</ele>
        <time>2014-09-11T12:19:40Z</time>
      </trkpt>
      <trkpt lat="44.44392" lon="4.84474">
        <ele>264.71</ele>
        <time>2014-09-11T12:19:42Z</time>
      </trkpt>
      <trkpt lat="44.44393" lon="4.84469">
        <ele>264.71</ele>
        <time>2014-09-11T12:19:55Z</time>
      </trkpt>
      <trkpt lat="44.44394" lon="4.84467">
        <ele>264.71</ele>
        <time>2014-09-11T12:20:30Z</time>
      </trkpt>
      <trkpt lat="44.44396" lon="4.8446">
        <ele>264.71</ele>
        <time>2014-09-11T12:20:47Z</time>
      </trkpt>
      <trkpt lat="44.44403" lon="4.84414">
        <ele>264.71</ele>
        <time>2014-09-11T12:21:01Z</time>
      </trkpt>
      <trkpt lat="44.44403" lon="4.84412">
        <ele>264.71</ele>
        <time>2014-09-11T12:21:02Z</time>
      </trkpt>
      <trkpt lat="44.44403" lon="4.84409">
        <ele>264.71</ele>
        <time>2014-09-11T12:21:03Z</time>
      </trkpt>
      <trkpt lat="44.44403" lon="4.84407">
        <ele>264.71</ele>
        <time>2014-09-11T12:21:04Z</time>
      </trkpt>
      <trkpt lat="44.44402" lon="4.84402">
        <ele>264.71</ele>
        <time>2014-09-11T12:21:12Z</time>
      </trkpt>
      <trkpt lat="44.44403" lon="4.844">
        <ele>264.71</ele>
        <time>2014-09-11T12:21:13Z</time>
      </trkpt>
      <trkpt lat="44.44402" lon="4.84398">
        <ele>264.71</ele>
        <time>2014-09-11T12:21:14Z</time>
      </trkpt>
      <trkpt lat="44.44402" lon="4.84396">
        <ele>264.71</ele>
        <time>2014-09-11T12:21:15Z</time>
      </trkpt>
      <trkpt lat="44.44403" lon="4.84394">
        <ele>264.71</ele>
        <time>2014-09-11T12:21:16Z</time>
      </trkpt>
      <trkpt lat="44.44403" lon="4.84391">
        <ele>264.71</ele>
        <time>2014-09-11T12:21:17Z</time>
      </trkpt>
      <trkpt lat="44.44403" lon="4.84388">
        <ele>264.71</ele>
        <time>2014-09-11T12:21:18Z</time>
      </trkpt>
      <trkpt lat="44.44409" lon="4.84349">
        <ele>264.71</ele>
        <time>2014-09-11T12:21:31Z</time>
      </trkpt>
      <trkpt lat="44.44412" lon="4.8434">
        <ele>264.71</ele>
        <time>2014-09-11T12:21:34Z</time>
      </trkpt>
      <trkpt lat="44.44411" lon="4.84333">
        <ele>264.71</ele>
        <time>2014-09-11T12:21:36Z</time>
      </trkpt>
      <trkpt lat="44.4441" lon="4.8433">
        <ele>264.71</ele>
        <time>2014-09-11T12:21:37Z</time>
      </trkpt>
      <trkpt lat="44.44406" lon="4.84325">
        <ele>264.71</ele>
        <time>2014-09-11T12:21:39Z</time>
      </trkpt>
      <trkpt lat="44.44377" lon="4.84312">
        <ele>264.71</ele>
        <time>2014-09-11T12:21:48Z</time>
      </trkpt>
      <trkpt lat="44.44373" lon="4.84315">
        <ele>264.71</ele>
        <time>2014-09-11T12:21:49Z</time>
      </trkpt>
      <trkpt lat="44.44365" lon="4.84325">
        <ele>264.71</ele>
        <time>2014-09-11T12:21:51Z</time>
      </trkpt>
      <trkpt lat="44.44362" lon="4.84331">
        <ele>264.71</ele>
        <time>2014-09-11T12:21:52Z</time>
      </trkpt>
      <trkpt lat="44.44359" lon="4.84338">
        <ele>264.71</ele>
        <time>2014-09-11T12:21:53Z</time>
      </trkpt>
      <trkpt lat="44.44357" lon="4.84345">
        <ele>264.71</ele>
        <time>2014-09-11T12:21:54Z</time>
      </trkpt>
      <trkpt lat="44.44352" lon="4.84358">
        <ele>264.71</ele>
        <time>2014-09-11T12:21:56Z</time>
      </trkpt>
      <trkpt lat="44.44345" lon="4.84376">
        <ele>264.71</ele>
        <time>2014-09-11T12:21:59Z</time>
      </trkpt>
      <trkpt lat="44.44342" lon="4.84382">
        <ele>264.71</ele>
        <time>2014-09-11T12:22:00Z</time>
      </trkpt>
      <trkpt lat="44.44339" lon="4.84386">
        <ele>264.71</ele>
        <time>2014-09-11T12:22:01Z</time>
      </trkpt>
      <trkpt lat="44.44335" lon="4.8439">
        <ele>264.71</ele>
        <time>2014-09-11T12:22:02Z</time>
      </trkpt>
      <trkpt lat="44.44331" lon="4.84391">
        <ele>264.71</ele>
        <time>2014-09-11T12:22:03Z</time>
      </trkpt>
      <trkpt lat="44.44327" lon="4.84392">
        <ele>264.71</ele>
        <time>2014-09-11T12:22:04Z</time>
      </trkpt>
      <trkpt lat="44.44322" lon="4.8439">
        <ele>264.71</ele>
        <time>2014-09-11T12:22:05Z</time>
      </trkpt>
      <trkpt lat="44.44317" lon="4.84388">
        <ele>264.71</ele>
        <time>2014-09-11T12:22:06Z</time>
      </trkpt>
      <trkpt lat="44.44313" lon="4.84385">
        <ele>264.71</ele>
        <time>2014-09-11T12:22:07Z</time>
      </trkpt>
      <trkpt lat="44.44282" lon="4.84353">
        <ele>264.71</ele>
        <time>2014-09-11T12:22:18Z</time>
      </trkpt>
      <trkpt lat="44.44255" lon="4.84326">
        <ele>264.71</ele>
        <time>2014-09-11T12:22:33Z</time>
      </trkpt>
      <trkpt lat="44.44238" lon="4.8432">
        <ele>264.71</ele>
        <time>2014-09-11T12:22:40Z</time>
      </trkpt>
      <trkpt lat="44.44235" lon="4.8432">
        <ele>264.71</ele>
        <time>2014-09-11T12:22:41Z</time>
      </trkpt>
      <trkpt lat="44.44232" lon="4.8432">
        <ele>264.71</ele>
        <time>2014-09-11T12:22:42Z</time>
      </trkpt>
      <trkpt lat="44.44175" lon="4.84328">
        <ele>264.71</ele>
        <time>2014-09-11T12:22:59Z</time>
      </trkpt>
      <trkpt lat="44.44117" lon="4.84331">
        <ele>264.71</ele>
        <time>2014-09-11T12:23:15Z</time>
      </trkpt>
      <trkpt lat="44.44081" lon="4.84322">
        <ele>264.71</ele>
        <time>2014-09-11T12:23:26Z</time>
      </trkpt>
      <trkpt lat="44.44054" lon="4.84312">
        <ele>264.71</ele>
        <time>2014-09-11T12:23:39Z</time>
      </trkpt>
      <trkpt lat="44.44033" lon="4.84306">
        <ele>264.71</ele>
        <time>2014-09-11T12:23:45Z</time>
      </trkpt>
      <trkpt lat="44.44028" lon="4.84306">
        <ele>264.71</ele>
        <time>2014-09-11T12:23:46Z</time>
      </trkpt>
      <trkpt lat="44.44023" lon="4.84305">
        <ele>264.71</ele>
        <time>2014-09-11T12:23:47Z</time>
      </trkpt>
      <trkpt lat="44.44017" lon="4.84306">
        <ele>264.71</ele>
        <time>2014-09-11T12:23:48Z</time>
      </trkpt>
      <trkpt lat="44.44011" lon="4.84307">
        <ele>264.71</ele>
        <time>2014-09-11T12:23:49Z</time>
      </trkpt>
      <trkpt lat="44.43999" lon="4.84307">
        <ele>264.71</ele>
        <time>2014-09-11T12:23:51Z</time>
      </trkpt>
      <trkpt lat="44.43925" lon="4.84292">
        <ele>264.71</ele>
        <time>2014-09-11T12:24:01Z</time>
      </trkpt>
      <trkpt lat="44.43861" lon="4.84274">
        <ele>264.71</ele>
        <time>2014-09-11T12:24:12Z</time>
      </trkpt>
      <trkpt lat="44.43815" lon="4.84258">
        <ele>264.71</ele>
        <time>2014-09-11T12:24:21Z</time>
      </trkpt>
      <trkpt lat="44.438" lon="4.84248">
        <ele>264.71</ele>
        <time>2014-09-11T12:24:24Z</time>
      </trkpt>
      <trkpt lat="44.43786" lon="4.84235">
        <ele>264.71</ele>
        <time>2014-09-11T12:24:27Z</time>
      </trkpt>
      <trkpt lat="44.43783" lon="4.84229">
        <ele>264.71</ele>
        <time>2014-09-11T12:24:28Z</time>
      </trkpt>
      <trkpt lat="44.4378" lon="4.84223">
        <ele>264.71</ele>
        <time>2014-09-11T12:24:29Z</time>
      </trkpt>
      <trkpt lat="44.43753" lon="4.84194">
        <ele>264.71</ele>
        <time>2014-09-11T12:24:38Z</time>
      </trkpt>
      <trkpt lat="44.43749" lon="4.84192">
        <ele>264.71</ele>
        <time>2014-09-11T12:24:39Z</time>
      </trkpt>
      <trkpt lat="44.43745" lon="4.84192">
        <ele>264.71</ele>
        <time>2014-09-11T12:24:40Z</time>
      </trkpt>
      <trkpt lat="44.43741" lon="4.84191">
        <ele>264.71</ele>
        <time>2014-09-11T12:24:41Z</time>
      </trkpt>
      <trkpt lat="44.4373" lon="4.84194">
        <ele>264.71</ele>
        <time>2014-09-11T12:24:50Z</time>
      </trkpt>
      <trkpt lat="44.43726" lon="4.84194">
        <ele>264.71</ele>
        <time>2014-09-11T12:25:12Z</time>
      </trkpt>
      <trkpt lat="44.43724" lon="4.84193">
        <ele>264.71</ele>
        <time>2014-09-11T12:25:13Z</time>
      </trkpt>
      <trkpt lat="44.43716" lon="4.84189">
        <ele>264.71</ele>
        <time>2014-09-11T12:25:16Z</time>
      </trkpt>
      <trkpt lat="44.43713" lon="4.84187">
        <ele>264.71</ele>
        <time>2014-09-11T12:25:17Z</time>
      </trkpt>
      <trkpt lat="44.43706" lon="4.84184">
        <ele>264.71</ele>
        <time>2014-09-11T12:25:19Z</time>
      </trkpt>
      <trkpt lat="44.43702" lon="4.84183">
        <ele>264.71</ele>
        <time>2014-09-11T12:25:20Z</time>
      </trkpt>
      <trkpt lat="44.43699" lon="4.84181">
        <ele>264.71</ele>
        <time>2014-09-11T12:25:21Z</time>
      </trkpt>
      <trkpt lat="44.43695" lon="4.84179">
        <ele>264.71</ele>
        <time>2014-09-11T12:25:22Z</time>
      </trkpt>
      <trkpt lat="44.43692" lon="4.84177">
        <ele>264.71</ele>
        <time>2014-09-11T12:25:23Z</time>
      </trkpt>
      <trkpt lat="44.43684" lon="4.84173">
        <ele>264.71</ele>
        <time>2014-09-11T12:25:25Z</time>
      </trkpt>
      <trkpt lat="44.4368" lon="4.84171">
        <ele>264.71</ele>
        <time>2014-09-11T12:25:26Z</time>
      </trkpt>
      <trkpt lat="44.43676" lon="4.84169">
        <ele>264.71</ele>
        <time>2014-09-11T12:25:27Z</time>
      </trkpt>
      <trkpt lat="44.43672" lon="4.84167">
        <ele>264.71</ele>
        <time>2014-09-11T12:25:28Z</time>
      </trkpt>
      <trkpt lat="44.43664" lon="4.84164">
        <ele>264.71</ele>
        <time>2014-09-11T12:25:30Z</time>
      </trkpt>
      <trkpt lat="44.43599" lon="4.84138">
        <ele>264.71</ele>
        <time>2014-09-11T12:25:45Z</time>
      </trkpt>
      <trkpt lat="44.43575" lon="4.84115">
        <ele>264.71</ele>
        <time>2014-09-11T12:25:52Z</time>
      </trkpt>
      <trkpt lat="44.43569" lon="4.841">
        <ele>264.71</ele>
        <time>2014-09-11T12:25:55Z</time>
      </trkpt>
      <trkpt lat="44.43543" lon="4.84028">
        <ele>264.71</ele>
        <time>2014-09-11T12:26:08Z</time>
      </trkpt>
      <trkpt lat="44.43541" lon="4.84022">
        <ele>264.71</ele>
        <time>2014-09-11T12:26:09Z</time>
      </trkpt>
      <trkpt lat="44.43529" lon="4.83984">
        <ele>264.71</ele>
        <time>2014-09-11T12:26:15Z</time>
      </trkpt>
      <trkpt lat="44.43492" lon="4.83887">
        <ele>264.71</ele>
        <time>2014-09-11T12:26:30Z</time>
      </trkpt>
      <trkpt lat="44.43468" lon="4.83801">
        <ele>264.71</ele>
        <time>2014-09-11T12:26:43Z</time>
      </trkpt>
      <trkpt lat="44.43437" lon="4.83719">
        <ele>264.71</ele>
        <time>2014-09-11T12:26:56Z</time>
      </trkpt>
      <trkpt lat="44.43429" lon="4.83708">
        <ele>264.71</ele>
        <time>2014-09-11T12:26:58Z</time>
      </trkpt>
      <trkpt lat="44.43417" lon="4.83692">
        <ele>264.71</ele>
        <time>2014-09-11T12:27:01Z</time>
      </trkpt>
      <trkpt lat="44.43413" lon="4.83686">
        <ele>264.71</ele>
        <time>2014-09-11T12:27:02Z</time>
      </trkpt>
      <trkpt lat="44.4341" lon="4.83679">
        <ele>264.71</ele>
        <time>2014-09-11T12:27:03Z</time>
      </trkpt>
      <trkpt lat="44.43408" lon="4.83672">
        <ele>264.71</ele>
        <time>2014-09-11T12:27:04Z</time>
      </trkpt>
      <trkpt lat="44.43407" lon="4.83657">
        <ele>264.71</ele>
        <time>2014-09-11T12:27:06Z</time>
      </trkpt>
      <trkpt lat="44.43407" lon="4.83642">
        <ele>264.71</ele>
        <time>2014-09-11T12:27:08Z</time>
      </trkpt>
      <trkpt lat="44.434" lon="4.83588">
        <ele>264.71</ele>
        <time>2014-09-11T12:27:16Z</time>
      </trkpt>
      <trkpt lat="44.43398" lon="4.83583">
        <ele>264.71</ele>
        <time>2014-09-11T12:27:17Z</time>
      </trkpt>
      <trkpt lat="44.43395" lon="4.83578">
        <ele>264.71</ele>
        <time>2014-09-11T12:27:18Z</time>
      </trkpt>
      <trkpt lat="44.43392" lon="4.83575">
        <ele>264.71</ele>
        <time>2014-09-11T12:27:19Z</time>
      </trkpt>
      <trkpt lat="44.43388" lon="4.83571">
        <ele>264.71</ele>
        <time>2014-09-11T12:27:20Z</time>
      </trkpt>
      <trkpt lat="44.43384" lon="4.83567">
        <ele>264.71</ele>
        <time>2014-09-11T12:27:21Z</time>
      </trkpt>
      <trkpt lat="44.4338" lon="4.83564">
        <ele>264.71</ele>
        <time>2014-09-11T12:27:22Z</time>
      </trkpt>
      <trkpt lat="44.43336" lon="4.83542">
        <ele>264.71</ele>
        <time>2014-09-11T12:27:34Z</time>
      </trkpt>
      <trkpt lat="44.43333" lon="4.83541">
        <ele>264.71</ele>
        <time>2014-09-11T12:27:35Z</time>
      </trkpt>
      <trkpt lat="44.43331" lon="4.8354">
        <ele>264.71</ele>
        <time>2014-09-11T12:27:36Z</time>
      </trkpt>
      <trkpt lat="44.43311" lon="4.83523">
        <ele>264.71</ele>
        <time>2014-09-11T12:27:43Z</time>
      </trkpt>
      <trkpt lat="44.43308" lon="4.8352">
        <ele>264.71</ele>
        <time>2014-09-11T12:27:44Z</time>
      </trkpt>
      <trkpt lat="44.43303" lon="4.83515">
        <ele>264.71</ele>
        <time>2014-09-11T12:27:46Z</time>
      </trkpt>
      <trkpt lat="44.433" lon="4.83513">
        <ele>264.71</ele>
        <time>2014-09-11T12:27:47Z</time>
      </trkpt>
      <trkpt lat="44.43297" lon="4.83511">
        <ele>264.71</ele>
        <time>2014-09-11T12:27:48Z</time>
      </trkpt>
      <trkpt lat="44.43295" lon="4.83509">
        <ele>264.71</ele>
        <time>2014-09-11T12:27:49Z</time>
      </trkpt>
      <trkpt lat="44.43292" lon="4.83507">
        <ele>264.71</ele>
        <time>2014-09-11T12:27:50Z</time>
      </trkpt>
      <trkpt lat="44.4329" lon="4.83505">
        <ele>264.71</ele>
        <time>2014-09-11T12:27:51Z</time>
      </trkpt>
      <trkpt lat="44.43288" lon="4.83503">
        <ele>264.71</ele>
        <time>2014-09-11T12:27:52Z</time>
      </trkpt>
      <trkpt lat="44.43285" lon="4.83502">
        <ele>264.71</ele>
        <time>2014-09-11T12:27:53Z</time>
      </trkpt>
      <trkpt lat="44.43283" lon="4.83499">
        <ele>264.71</ele>
        <time>2014-09-11T12:27:54Z</time>
      </trkpt>
      <trkpt lat="44.4328" lon="4.83497">
        <ele>264.71</ele>
        <time>2014-09-11T12:27:55Z</time>
      </trkpt>
      <trkpt lat="44.43278" lon="4.83494">
        <ele>264.71</ele>
        <time>2014-09-11T12:27:56Z</time>
      </trkpt>
      <trkpt lat="44.43275" lon="4.83491">
        <ele>264.71</ele>
        <time>2014-09-11T12:27:57Z</time>
      </trkpt>
      <trkpt lat="44.43273" lon="4.83487">
        <ele>264.71</ele>
        <time>2014-09-11T12:27:58Z</time>
      </trkpt>
      <trkpt lat="44.4327" lon="4.83484">
        <ele>264.71</ele>
        <time>2014-09-11T12:27:59Z</time>
      </trkpt>
      <trkpt lat="44.43265" lon="4.83477">
        <ele>264.71</ele>
        <time>2014-09-11T12:28:01Z</time>
      </trkpt>
      <trkpt lat="44.43262" lon="4.83473">
        <ele>264.71</ele>
        <time>2014-09-11T12:28:02Z</time>
      </trkpt>
      <trkpt lat="44.4326" lon="4.83469">
        <ele>264.71</ele>
        <time>2014-09-11T12:28:03Z</time>
      </trkpt>
      <trkpt lat="44.43258" lon="4.83465">
        <ele>264.71</ele>
        <time>2014-09-11T12:28:04Z</time>
      </trkpt>
      <trkpt lat="44.43255" lon="4.83462">
        <ele>264.71</ele>
        <time>2014-09-11T12:28:05Z</time>
      </trkpt>
      <trkpt lat="44.43253" lon="4.83458">
        <ele>264.71</ele>
        <time>2014-09-11T12:28:06Z</time>
      </trkpt>
      <trkpt lat="44.43251" lon="4.83455">
        <ele>264.71</ele>
        <time>2014-09-11T12:28:07Z</time>
      </trkpt>
      <trkpt lat="44.4325" lon="4.83451">
        <ele>264.71</ele>
        <time>2014-09-11T12:28:08Z</time>
      </trkpt>
      <trkpt lat="44.43244" lon="4.83442">
        <ele>264.71</ele>
        <time>2014-09-11T12:28:11Z</time>
      </trkpt>
      <trkpt lat="44.43243" lon="4.8344">
        <ele>264.71</ele>
        <time>2014-09-11T12:28:12Z</time>
      </trkpt>
      <trkpt lat="44.43242" lon="4.83439">
        <ele>264.71</ele>
        <time>2014-09-11T12:28:13Z</time>
      </trkpt>
      <trkpt lat="44.43241" lon="4.83437">
        <ele>264.71</ele>
        <time>2014-09-11T12:28:29Z</time>
      </trkpt>
      <trkpt lat="44.43241" lon="4.83436">
        <ele>264.71</ele>
        <time>2014-09-11T12:29:01Z</time>
      </trkpt>
      <trkpt lat="44.4324" lon="4.83436">
        <ele>264.71</ele>
        <time>2014-09-11T12:30:34Z</time>
      </trkpt>
      <trkpt lat="44.4324" lon="4.83437">
        <ele>264.71</ele>
        <time>2014-09-11T12:32:18Z</time>
      </trkpt>
      <trkpt lat="44.43239" lon="4.83433">
        <ele>264.71</ele>
        <time>2014-09-11T12:32:48Z</time>
      </trkpt>
      <trkpt lat="44.43238" lon="4.83432">
        <ele>264.71</ele>
        <time>2014-09-11T12:32:49Z</time>
      </trkpt>
      <trkpt lat="44.43236" lon="4.8343">
        <ele>264.71</ele>
        <time>2014-09-11T12:32:50Z</time>
      </trkpt>
      <trkpt lat="44.43233" lon="4.83428">
        <ele>264.71</ele>
        <time>2014-09-11T12:32:51Z</time>
      </trkpt>
      <trkpt lat="44.4323" lon="4.83427">
        <ele>264.71</ele>
        <time>2014-09-11T12:32:52Z</time>
      </trkpt>
      <trkpt lat="44.43227" lon="4.83426">
        <ele>264.71</ele>
        <time>2014-09-11T12:32:53Z</time>
      </trkpt>
      <trkpt lat="44.43224" lon="4.83426">
        <ele>264.71</ele>
        <time>2014-09-11T12:32:54Z</time>
      </trkpt>
      <trkpt lat="44.4322" lon="4.83426">
        <ele>264.71</ele>
        <time>2014-09-11T12:32:55Z</time>
      </trkpt>
      <trkpt lat="44.43217" lon="4.83427">
        <ele>264.71</ele>
        <time>2014-09-11T12:32:56Z</time>
      </trkpt>
      <trkpt lat="44.43213" lon="4.83427">
        <ele>264.71</ele>
        <time>2014-09-11T12:32:57Z</time>
      </trkpt>
      <trkpt lat="44.43209" lon="4.83427">
        <ele>264.71</ele>
        <time>2014-09-11T12:32:58Z</time>
      </trkpt>
      <trkpt lat="44.43204" lon="4.83427">
        <ele>264.71</ele>
        <time>2014-09-11T12:32:59Z</time>
      </trkpt>
      <trkpt lat="44.43199" lon="4.83427">
        <ele>264.71</ele>
        <time>2014-09-11T12:33:00Z</time>
      </trkpt>
      <trkpt lat="44.43195" lon="4.83427">
        <ele>264.7</ele>
        <time>2014-09-11T12:33:01Z</time>
      </trkpt>
      <trkpt lat="44.4319" lon="4.83427">
        <ele>264.7</ele>
        <time>2014-09-11T12:33:02Z</time>
      </trkpt>
      <trkpt lat="44.43169" lon="4.83424">
        <ele>264.7</ele>
        <time>2014-09-11T12:33:06Z</time>
      </trkpt>
      <trkpt lat="44.43164" lon="4.83423">
        <ele>264.7</ele>
        <time>2014-09-11T12:33:07Z</time>
      </trkpt>
      <trkpt lat="44.43097" lon="4.83408">
        <ele>264.7</ele>
        <time>2014-09-11T12:33:21Z</time>
      </trkpt>
      <trkpt lat="44.43054" lon="4.83393">
        <ele>264.7</ele>
        <time>2014-09-11T12:33:30Z</time>
      </trkpt>
      <trkpt lat="44.4302" lon="4.83378">
        <ele>264.7</ele>
        <time>2014-09-11T12:33:39Z</time>
      </trkpt>
      <trkpt lat="44.43006" lon="4.83367">
        <ele>264.7</ele>
        <time>2014-09-11T12:33:43Z</time>
      </trkpt>
      <trkpt lat="44.43003" lon="4.83364">
        <ele>264.7</ele>
        <time>2014-09-11T12:33:44Z</time>
      </trkpt>
      <trkpt lat="44.43" lon="4.83362">
        <ele>264.7</ele>
        <time>2014-09-11T12:33:45Z</time>
      </trkpt>
      <trkpt lat="44.42997" lon="4.8336">
        <ele>264.7</ele>
        <time>2014-09-11T12:33:46Z</time>
      </trkpt>
      <trkpt lat="44.42994" lon="4.83357">
        <ele>264.7</ele>
        <time>2014-09-11T12:33:47Z</time>
      </trkpt>
      <trkpt lat="44.42992" lon="4.83355">
        <ele>264.7</ele>
        <time>2014-09-11T12:33:48Z</time>
      </trkpt>
      <trkpt lat="44.42989" lon="4.83354">
        <ele>264.7</ele>
        <time>2014-09-11T12:33:49Z</time>
      </trkpt>
      <trkpt lat="44.42987" lon="4.83353">
        <ele>264.7</ele>
        <time>2014-09-11T12:33:50Z</time>
      </trkpt>
      <trkpt lat="44.42983" lon="4.83352">
        <ele>264.7</ele>
        <time>2014-09-11T12:33:51Z</time>
      </trkpt>
      <trkpt lat="44.4298" lon="4.8335">
        <ele>264.7</ele>
        <time>2014-09-11T12:33:52Z</time>
      </trkpt>
      <trkpt lat="44.42977" lon="4.83349">
        <ele>264.7</ele>
        <time>2014-09-11T12:33:53Z</time>
      </trkpt>
      <trkpt lat="44.42974" lon="4.83347">
        <ele>264.7</ele>
        <time>2014-09-11T12:33:54Z</time>
      </trkpt>
      <trkpt lat="44.42965" lon="4.83341">
        <ele>264.7</ele>
        <time>2014-09-11T12:33:57Z</time>
      </trkpt>
      <trkpt lat="44.42962" lon="4.83339">
        <ele>264.7</ele>
        <time>2014-09-11T12:33:58Z</time>
      </trkpt>
      <trkpt lat="44.4296" lon="4.83337">
        <ele>264.7</ele>
        <time>2014-09-11T12:33:59Z</time>
      </trkpt>
      <trkpt lat="44.42957" lon="4.83335">
        <ele>264.7</ele>
        <time>2014-09-11T12:34:00Z</time>
      </trkpt>
      <trkpt lat="44.42954" lon="4.83332">
        <ele>264.7</ele>
        <time>2014-09-11T12:34:01Z</time>
      </trkpt>
      <trkpt lat="44.42951" lon="4.83329">
        <ele>264.7</ele>
        <time>2014-09-11T12:34:02Z</time>
      </trkpt>
      <trkpt lat="44.4294" lon="4.83313">
        <ele>264.7</ele>
        <time>2014-09-11T12:34:09Z</time>
      </trkpt>
      <trkpt lat="44.42936" lon="4.8331">
        <ele>264.7</ele>
        <time>2014-09-11T12:34:11Z</time>
      </trkpt>
      <trkpt lat="44.42932" lon="4.83306">
        <ele>264.7</ele>
        <time>2014-09-11T12:34:13Z</time>
      </trkpt>
      <trkpt lat="44.42916" lon="4.83287">
        <ele>264.7</ele>
        <time>2014-09-11T12:34:26Z</time>
      </trkpt>
      <trkpt lat="44.42915" lon="4.83287">
        <ele>264.7</ele>
        <time>2014-09-11T12:34:28Z</time>
      </trkpt>
      <trkpt lat="44.42919" lon="4.83281">
        <ele>264.7</ele>
        <time>2014-09-11T12:34:32Z</time>
      </trkpt>
      <trkpt lat="44.42935" lon="4.83252">
        <ele>264.7</ele>
        <time>2014-09-11T12:34:43Z</time>
      </trkpt>
      <trkpt lat="44.42924" lon="4.83225">
        <ele>264.7</ele>
        <time>2014-09-11T12:34:54Z</time>
      </trkpt>
      <trkpt lat="44.42893" lon="4.83244">
        <ele>264.7</ele>
        <time>2014-09-11T12:35:04Z</time>
      </trkpt>
      <trkpt lat="44.42877" lon="4.83251">
        <ele>264.7</ele>
        <time>2014-09-11T12:35:08Z</time>
      </trkpt>
      <trkpt lat="44.42873" lon="4.83253">
        <ele>264.7</ele>
        <time>2014-09-11T12:35:09Z</time>
      </trkpt>
      <trkpt lat="44.4284" lon="4.83259">
        <ele>264.7</ele>
        <time>2014-09-11T12:35:16Z</time>
      </trkpt>
      <trkpt lat="44.4281" lon="4.83245">
        <ele>264.7</ele>
        <time>2014-09-11T12:35:22Z</time>
      </trkpt>
      <trkpt lat="44.42788" lon="4.83211">
        <ele>264.7</ele>
        <time>2014-09-11T12:35:30Z</time>
      </trkpt>
      <trkpt lat="44.42786" lon="4.83205">
        <ele>264.7</ele>
        <time>2014-09-11T12:35:31Z</time>
      </trkpt>
      <trkpt lat="44.42784" lon="4.832">
        <ele>264.7</ele>
        <time>2014-09-11T12:35:32Z</time>
      </trkpt>
      <trkpt lat="44.42783" lon="4.83194">
        <ele>264.7</ele>
        <time>2014-09-11T12:35:33Z</time>
      </trkpt>
      <trkpt lat="44.42782" lon="4.83187">
        <ele>264.7</ele>
        <time>2014-09-11T12:35:34Z</time>
      </trkpt>
      <trkpt lat="44.42781" lon="4.83181">
        <ele>264.7</ele>
        <time>2014-09-11T12:35:35Z</time>
      </trkpt>
      <trkpt lat="44.4278" lon="4.83175">
        <ele>264.7</ele>
        <time>2014-09-11T12:35:36Z</time>
      </trkpt>
      <trkpt lat="44.42775" lon="4.83153">
        <ele>264.7</ele>
        <time>2014-09-11T12:35:40Z</time>
      </trkpt>
      <trkpt lat="44.42772" lon="4.83147">
        <ele>264.7</ele>
        <time>2014-09-11T12:35:41Z</time>
      </trkpt>
      <trkpt lat="44.42769" lon="4.8314">
        <ele>264.7</ele>
        <time>2014-09-11T12:35:42Z</time>
      </trkpt>
      <trkpt lat="44.42766" lon="4.83133">
        <ele>264.7</ele>
        <time>2014-09-11T12:35:43Z</time>
      </trkpt>
      <trkpt lat="44.42764" lon="4.83125">
        <ele>264.7</ele>
        <time>2014-09-11T12:35:44Z</time>
      </trkpt>
      <trkpt lat="44.42759" lon="4.83107">
        <ele>264.7</ele>
        <time>2014-09-11T12:35:46Z</time>
      </trkpt>
      <trkpt lat="44.42745" lon="4.83072">
        <ele>264.7</ele>
        <time>2014-09-11T12:35:51Z</time>
      </trkpt>
      <trkpt lat="44.42738" lon="4.8304">
        <ele>264.7</ele>
        <time>2014-09-11T12:35:56Z</time>
      </trkpt>
      <trkpt lat="44.42746" lon="4.82993">
        <ele>264.7</ele>
        <time>2014-09-11T12:36:02Z</time>
      </trkpt>
      <trkpt lat="44.42739" lon="4.82957">
        <ele>264.7</ele>
        <time>2014-09-11T12:36:07Z</time>
      </trkpt>
      <trkpt lat="44.42723" lon="4.8293">
        <ele>264.7</ele>
        <time>2014-09-11T12:36:12Z</time>
      </trkpt>
      <trkpt lat="44.42714" lon="4.82921">
        <ele>264.7</ele>
        <time>2014-09-11T12:36:14Z</time>
      </trkpt>
      <trkpt lat="44.42692" lon="4.82865">
        <ele>264.7</ele>
        <time>2014-09-11T12:36:22Z</time>
      </trkpt>
      <trkpt lat="44.42678" lon="4.82852">
        <ele>264.7</ele>
        <time>2014-09-11T12:36:27Z</time>
      </trkpt>
      <trkpt lat="44.42667" lon="4.8285">
        <ele>264.7</ele>
        <time>2014-09-11T12:36:29Z</time>
      </trkpt>
      <trkpt lat="44.42655" lon="4.82849">
        <ele>264.7</ele>
        <time>2014-09-11T12:36:31Z</time>
      </trkpt>
      <trkpt lat="44.42629" lon="4.82839">
        <ele>264.7</ele>
        <time>2014-09-11T12:36:37Z</time>
      </trkpt>
      <trkpt lat="44.42622" lon="4.82828">
        <ele>264.7</ele>
        <time>2014-09-11T12:36:39Z</time>
      </trkpt>
      <trkpt lat="44.42589" lon="4.82736">
        <ele>264.7</ele>
        <time>2014-09-11T12:36:50Z</time>
      </trkpt>
      <trkpt lat="44.42569" lon="4.82659">
        <ele>264.7</ele>
        <time>2014-09-11T12:37:02Z</time>
      </trkpt>
      <trkpt lat="44.42566" lon="4.82655">
        <ele>264.7</ele>
        <time>2014-09-11T12:37:13Z</time>
      </trkpt>
      <trkpt lat="44.42561" lon="4.82653">
        <ele>264.7</ele>
        <time>2014-09-11T12:37:23Z</time>
      </trkpt>
      <trkpt lat="44.42559" lon="4.82652">
        <ele>264.7</ele>
        <time>2014-09-11T12:37:24Z</time>
      </trkpt>
      <trkpt lat="44.42556" lon="4.82651">
        <ele>264.7</ele>
        <time>2014-09-11T12:37:25Z</time>
      </trkpt>
      <trkpt lat="44.42553" lon="4.8265">
        <ele>264.7</ele>
        <time>2014-09-11T12:37:26Z</time>
      </trkpt>
      <trkpt lat="44.4255" lon="4.82648">
        <ele>264.7</ele>
        <time>2014-09-11T12:37:27Z</time>
      </trkpt>
      <trkpt lat="44.42538" lon="4.82632">
        <ele>264.7</ele>
        <time>2014-09-11T12:37:32Z</time>
      </trkpt>
      <trkpt lat="44.42511" lon="4.8261">
        <ele>264.7</ele>
        <time>2014-09-11T12:37:40Z</time>
      </trkpt>
      <trkpt lat="44.42506" lon="4.8261">
        <ele>264.7</ele>
        <time>2014-09-11T12:37:41Z</time>
      </trkpt>
      <trkpt lat="44.42404" lon="4.82608">
        <ele>264.7</ele>
        <time>2014-09-11T12:37:59Z</time>
      </trkpt>
      <trkpt lat="44.42268" lon="4.82601">
        <ele>264.7</ele>
        <time>2014-09-11T12:38:18Z</time>
      </trkpt>
      <trkpt lat="44.4226" lon="4.82601">
        <ele>264.7</ele>
        <time>2014-09-11T12:38:19Z</time>
      </trkpt>
      <trkpt lat="44.42245" lon="4.826">
        <ele>264.7</ele>
        <time>2014-09-11T12:38:21Z</time>
      </trkpt>
      <trkpt lat="44.42186" lon="4.82595">
        <ele>264.7</ele>
        <time>2014-09-11T12:38:32Z</time>
      </trkpt>
      <trkpt lat="44.42183" lon="4.82593">
        <ele>264.7</ele>
        <time>2014-09-11T12:38:44Z</time>
      </trkpt>
      <trkpt lat="44.42182" lon="4.82594">
        <ele>264.7</ele>
        <time>2014-09-11T12:39:07Z</time>
      </trkpt>
      <trkpt lat="44.42181" lon="4.82595">
        <ele>264.7</ele>
        <time>2014-09-11T12:39:08Z</time>
      </trkpt>
      <trkpt lat="44.4218" lon="4.82598">
        <ele>264.7</ele>
        <time>2014-09-11T12:39:09Z</time>
      </trkpt>
      <trkpt lat="44.42177" lon="4.8261">
        <ele>264.7</ele>
        <time>2014-09-11T12:39:12Z</time>
      </trkpt>
      <trkpt lat="44.42174" lon="4.82615">
        <ele>264.7</ele>
        <time>2014-09-11T12:39:13Z</time>
      </trkpt>
      <trkpt lat="44.42168" lon="4.82628">
        <ele>264.7</ele>
        <time>2014-09-11T12:39:15Z</time>
      </trkpt>
      <trkpt lat="44.42166" lon="4.82636">
        <ele>264.7</ele>
        <time>2014-09-11T12:39:16Z</time>
      </trkpt>
      <trkpt lat="44.42151" lon="4.82755">
        <ele>264.7</ele>
        <time>2014-09-11T12:39:34Z</time>
      </trkpt>
      <trkpt lat="44.42133" lon="4.8291">
        <ele>264.7</ele>
        <time>2014-09-11T12:39:57Z</time>
      </trkpt>
      <trkpt lat="44.42117" lon="4.83034">
        <ele>264.7</ele>
        <time>2014-09-11T12:40:13Z</time>
      </trkpt>
      <trkpt lat="44.42113" lon="4.83065">
        <ele>264.7</ele>
        <time>2014-09-11T12:40:22Z</time>
      </trkpt>
      <trkpt lat="44.42112" lon="4.83093">
        <ele>264.7</ele>
        <time>2014-09-11T12:40:35Z</time>
      </trkpt>
      <trkpt lat="44.42109" lon="4.8312">
        <ele>264.7</ele>
        <time>2014-09-11T12:40:39Z</time>
      </trkpt>
      <trkpt lat="44.42105" lon="4.83158">
        <ele>264.7</ele>
        <time>2014-09-11T12:40:44Z</time>
      </trkpt>
      <trkpt lat="44.42103" lon="4.83181">
        <ele>264.7</ele>
        <time>2014-09-11T12:40:47Z</time>
      </trkpt>
      <trkpt lat="44.42102" lon="4.83187">
        <ele>264.7</ele>
        <time>2014-09-11T12:40:48Z</time>
      </trkpt>
      <trkpt lat="44.42093" lon="4.83254">
        <ele>264.7</ele>
        <time>2014-09-11T12:40:59Z</time>
      </trkpt>
      <trkpt lat="44.42092" lon="4.8326">
        <ele>264.7</ele>
        <time>2014-09-11T12:41:00Z</time>
      </trkpt>
      <trkpt lat="44.42092" lon="4.83267">
        <ele>264.7</ele>
        <time>2014-09-11T12:41:01Z</time>
      </trkpt>
      <trkpt lat="44.42091" lon="4.83273">
        <ele>264.7</ele>
        <time>2014-09-11T12:41:02Z</time>
      </trkpt>
      <trkpt lat="44.42091" lon="4.83279">
        <ele>264.7</ele>
        <time>2014-09-11T12:41:03Z</time>
      </trkpt>
      <trkpt lat="44.42085" lon="4.83325">
        <ele>264.7</ele>
        <time>2014-09-11T12:41:10Z</time>
      </trkpt>
      <trkpt lat="44.42084" lon="4.83331">
        <ele>264.7</ele>
        <time>2014-09-11T12:41:11Z</time>
      </trkpt>
      <trkpt lat="44.42072" lon="4.8339">
        <ele>264.7</ele>
        <time>2014-09-11T12:41:20Z</time>
      </trkpt>
      <trkpt lat="44.4207" lon="4.83396">
        <ele>264.7</ele>
        <time>2014-09-11T12:41:21Z</time>
      </trkpt>
      <trkpt lat="44.42067" lon="4.83401">
        <ele>264.7</ele>
        <time>2014-09-11T12:41:22Z</time>
      </trkpt>
      <trkpt lat="44.4203" lon="4.83444">
        <ele>264.7</ele>
        <time>2014-09-11T12:41:36Z</time>
      </trkpt>
      <trkpt lat="44.42011" lon="4.83461">
        <ele>264.7</ele>
        <time>2014-09-11T12:41:42Z</time>
      </trkpt>
      <trkpt lat="44.42008" lon="4.83464">
        <ele>264.7</ele>
        <time>2014-09-11T12:41:43Z</time>
      </trkpt>
      <trkpt lat="44.42004" lon="4.83468">
        <ele>264.7</ele>
        <time>2014-09-11T12:41:44Z</time>
      </trkpt>
      <trkpt lat="44.42001" lon="4.83471">
        <ele>264.7</ele>
        <time>2014-09-11T12:41:45Z</time>
      </trkpt>
      <trkpt lat="44.41997" lon="4.83474">
        <ele>264.7</ele>
        <time>2014-09-11T12:41:46Z</time>
      </trkpt>
      <trkpt lat="44.41994" lon="4.83477">
        <ele>264.7</ele>
        <time>2014-09-11T12:41:47Z</time>
      </trkpt>
      <trkpt lat="44.41958" lon="4.83516">
        <ele>264.7</ele>
        <time>2014-09-11T12:42:00Z</time>
      </trkpt>
      <trkpt lat="44.41959" lon="4.8352">
        <ele>264.7</ele>
        <time>2014-09-11T12:42:13Z</time>
      </trkpt>
      <trkpt lat="44.4196" lon="4.8352">
        <ele>264.7</ele>
        <time>2014-09-11T12:42:43Z</time>
      </trkpt>
      <trkpt lat="44.4196" lon="4.8352">
        <ele>264.7</ele>
        <time>2014-09-11T12:43:38Z</time>
      </trkpt>
      <trkpt lat="44.4196" lon="4.83519">
        <ele>264.7</ele>
        <time>2014-09-11T12:45:49Z</time>
      </trkpt>
      <trkpt lat="44.41961" lon="4.83519">
        <ele>264.7</ele>
        <time>2014-09-11T12:47:50Z</time>
      </trkpt>
      <trkpt lat="44.41962" lon="4.83518">
        <ele>264.7</ele>
        <time>2014-09-11T12:49:12Z</time>
      </trkpt>
      <trkpt lat="44.40291" lon="4.83788">
        <ele>197.82</ele>
        <time>2014-09-11T13:09:26Z</time>
      </trkpt>
      <trkpt lat="44.40291" lon="4.83788">
        <ele>197.74</ele>
        <time>2014-09-11T13:09:27Z</time>
      </trkpt>
      <trkpt lat="44.40291" lon="4.83789">
        <ele>197.87</ele>
        <time>2014-09-11T13:09:44Z</time>
      </trkpt>
      <trkpt lat="44.40291" lon="4.83792">
        <ele>197.79</ele>
        <time>2014-09-11T13:09:45Z</time>
      </trkpt>
      <trkpt lat="44.4029" lon="4.83796">
        <ele>197.78</ele>
        <time>2014-09-11T13:09:46Z</time>
      </trkpt>
      <trkpt lat="44.40284" lon="4.83863">
        <ele>199.32</ele>
        <time>2014-09-11T13:10:00Z</time>
      </trkpt>
      <trkpt lat="44.40281" lon="4.83903">
        <ele>200.09</ele>
        <time>2014-09-11T13:10:10Z</time>
      </trkpt>
      <trkpt lat="44.40281" lon="4.83907">
        <ele>200.19</ele>
        <time>2014-09-11T13:10:11Z</time>
      </trkpt>
      <trkpt lat="44.40281" lon="4.8391">
        <ele>200.3</ele>
        <time>2014-09-11T13:10:12Z</time>
      </trkpt>
      <trkpt lat="44.4028" lon="4.83917">
        <ele>200.58</ele>
        <time>2014-09-11T13:10:14Z</time>
      </trkpt>
      <trkpt lat="44.40278" lon="4.83963">
        <ele>201.71</ele>
        <time>2014-09-11T13:10:27Z</time>
      </trkpt>
      <trkpt lat="44.40278" lon="4.83965">
        <ele>201.71</ele>
        <time>2014-09-11T13:10:28Z</time>
      </trkpt>
      <trkpt lat="44.40278" lon="4.83967">
        <ele>201.79</ele>
        <time>2014-09-11T13:10:29Z</time>
      </trkpt>
      <trkpt lat="44.40278" lon="4.83969">
        <ele>201.83</ele>
        <time>2014-09-11T13:10:30Z</time>
      </trkpt>
      <trkpt lat="44.40279" lon="4.83978">
        <ele>201.88</ele>
        <time>2014-09-11T13:10:35Z</time>
      </trkpt>
      <trkpt lat="44.40279" lon="4.83983">
        <ele>201.69</ele>
        <time>2014-09-11T13:10:37Z</time>
      </trkpt>
      <trkpt lat="44.40279" lon="4.83988">
        <ele>201.43</ele>
        <time>2014-09-11T13:10:40Z</time>
      </trkpt>
      <trkpt lat="44.40279" lon="4.83991">
        <ele>201.44</ele>
        <time>2014-09-11T13:10:41Z</time>
      </trkpt>
      <trkpt lat="44.4028" lon="4.83993">
        <ele>201.52</ele>
        <time>2014-09-11T13:10:42Z</time>
      </trkpt>
      <trkpt lat="44.40279" lon="4.83995">
        <ele>201.57</ele>
        <time>2014-09-11T13:10:43Z</time>
      </trkpt>
      <trkpt lat="44.40279" lon="4.83997">
        <ele>201.69</ele>
        <time>2014-09-11T13:10:44Z</time>
      </trkpt>
      <trkpt lat="44.4028" lon="4.83999">
        <ele>201.75</ele>
        <time>2014-09-11T13:10:45Z</time>
      </trkpt>
      <trkpt lat="44.4028" lon="4.84003">
        <ele>201.71</ele>
        <time>2014-09-11T13:11:00Z</time>
      </trkpt>
      <trkpt lat="44.4028" lon="4.84006">
        <ele>201.82</ele>
        <time>2014-09-11T13:11:47Z</time>
      </trkpt>
      <trkpt lat="44.40282" lon="4.84014">
        <ele>200.82</ele>
        <time>2014-09-11T13:12:17Z</time>
      </trkpt>
      <trkpt lat="44.40284" lon="4.84033">
        <ele>201.46</ele>
        <time>2014-09-11T13:12:25Z</time>
      </trkpt>
      <trkpt lat="44.40285" lon="4.84036">
        <ele>201.48</ele>
        <time>2014-09-11T13:12:26Z</time>
      </trkpt>
      <trkpt lat="44.40285" lon="4.84039">
        <ele>201.56</ele>
        <time>2014-09-11T13:12:27Z</time>
      </trkpt>
      <trkpt lat="44.40286" lon="4.84043">
        <ele>201.59</ele>
        <time>2014-09-11T13:12:28Z</time>
      </trkpt>
      <trkpt lat="44.40286" lon="4.84046">
        <ele>201.48</ele>
        <time>2014-09-11T13:12:29Z</time>
      </trkpt>
      <trkpt lat="44.40287" lon="4.8405">
        <ele>201.49</ele>
        <time>2014-09-11T13:12:30Z</time>
      </trkpt>
      <trkpt lat="44.40288" lon="4.84054">
        <ele>201.43</ele>
        <time>2014-09-11T13:12:31Z</time>
      </trkpt>
      <trkpt lat="44.40289" lon="4.84064">
        <ele>201.07</ele>
        <time>2014-09-11T13:12:34Z</time>
      </trkpt>
      <trkpt lat="44.40291" lon="4.84072">
        <ele>200.96</ele>
        <time>2014-09-11T13:12:36Z</time>
      </trkpt>
      <trkpt lat="44.40291" lon="4.84076">
        <ele>200.94</ele>
        <time>2014-09-11T13:12:37Z</time>
      </trkpt>
      <trkpt lat="44.40293" lon="4.84081">
        <ele>200.92</ele>
        <time>2014-09-11T13:12:38Z</time>
      </trkpt>
      <trkpt lat="44.40294" lon="4.84087">
        <ele>200.92</ele>
        <time>2014-09-11T13:12:39Z</time>
      </trkpt>
      <trkpt lat="44.40295" lon="4.84092">
        <ele>200.92</ele>
        <time>2014-09-11T13:12:40Z</time>
      </trkpt>
      <trkpt lat="44.40296" lon="4.84098">
        <ele>200.99</ele>
        <time>2014-09-11T13:12:41Z</time>
      </trkpt>
      <trkpt lat="44.40298" lon="4.84104">
        <ele>201.08</ele>
        <time>2014-09-11T13:12:42Z</time>
      </trkpt>
      <trkpt lat="44.40302" lon="4.84122">
        <ele>201.35</ele>
        <time>2014-09-11T13:12:45Z</time>
      </trkpt>
      <trkpt lat="44.4031" lon="4.84146">
        <ele>201.58</ele>
        <time>2014-09-11T13:12:49Z</time>
      </trkpt>
      <trkpt lat="44.40312" lon="4.84152">
        <ele>201.65</ele>
        <time>2014-09-11T13:12:50Z</time>
      </trkpt>
      <trkpt lat="44.40315" lon="4.84157">
        <ele>201.65</ele>
        <time>2014-09-11T13:12:51Z</time>
      </trkpt>
      <trkpt lat="44.40319" lon="4.84168">
        <ele>201.61</ele>
        <time>2014-09-11T13:12:53Z</time>
      </trkpt>
      <trkpt lat="44.4034" lon="4.84207">
        <ele>201.44</ele>
        <time>2014-09-11T13:13:00Z</time>
      </trkpt>
      <trkpt lat="44.40343" lon="4.84212">
        <ele>201.49</ele>
        <time>2014-09-11T13:13:01Z</time>
      </trkpt>
      <trkpt lat="44.40365" lon="4.84256">
        <ele>202.88</ele>
        <time>2014-09-11T13:13:10Z</time>
      </trkpt>
      <trkpt lat="44.40366" lon="4.84262">
        <ele>202.88</ele>
        <time>2014-09-11T13:13:11Z</time>
      </trkpt>
      <trkpt lat="44.40375" lon="4.84283">
        <ele>202.64</ele>
        <time>2014-09-11T13:13:15Z</time>
      </trkpt>
      <trkpt lat="44.40377" lon="4.84289">
        <ele>202.78</ele>
        <time>2014-09-11T13:13:16Z</time>
      </trkpt>
      <trkpt lat="44.40381" lon="4.84301">
        <ele>202.97</ele>
        <time>2014-09-11T13:13:18Z</time>
      </trkpt>
      <trkpt lat="44.4039" lon="4.84323">
        <ele>202.31</ele>
        <time>2014-09-11T13:13:22Z</time>
      </trkpt>
      <trkpt lat="44.40394" lon="4.84335">
        <ele>202.03</ele>
        <time>2014-09-11T13:13:24Z</time>
      </trkpt>
      <trkpt lat="44.40425" lon="4.84411">
        <ele>203.22</ele>
        <time>2014-09-11T13:13:37Z</time>
      </trkpt>
      <trkpt lat="44.40448" lon="4.84468">
        <ele>203.8</ele>
        <time>2014-09-11T13:13:48Z</time>
      </trkpt>
      <trkpt lat="44.40451" lon="4.84485">
        <ele>203.13</ele>
        <time>2014-09-11T13:13:51Z</time>
      </trkpt>
      <trkpt lat="44.40452" lon="4.84497">
        <ele>203</ele>
        <time>2014-09-11T13:13:53Z</time>
      </trkpt>
      <trkpt lat="44.40452" lon="4.8451">
        <ele>202.9</ele>
        <time>2014-09-11T13:13:55Z</time>
      </trkpt>
      <trkpt lat="44.40451" lon="4.84516">
        <ele>203.01</ele>
        <time>2014-09-11T13:13:56Z</time>
      </trkpt>
      <trkpt lat="44.40439" lon="4.84623">
        <ele>204.14</ele>
        <time>2014-09-11T13:14:14Z</time>
      </trkpt>
      <trkpt lat="44.40449" lon="4.84714">
        <ele>205.9</ele>
        <time>2014-09-11T13:14:32Z</time>
      </trkpt>
      <trkpt lat="44.4046" lon="4.84811">
        <ele>207.72</ele>
        <time>2014-09-11T13:14:52Z</time>
      </trkpt>
      <trkpt lat="44.40471" lon="4.84905">
        <ele>210.58</ele>
        <time>2014-09-11T13:15:13Z</time>
      </trkpt>
      <trkpt lat="44.40484" lon="4.84952">
        <ele>213.6</ele>
        <time>2014-09-11T13:15:26Z</time>
      </trkpt>
      <trkpt lat="44.40498" lon="4.84969">
        <ele>214.44</ele>
        <time>2014-09-11T13:15:33Z</time>
      </trkpt>
      <trkpt lat="44.40503" lon="4.84971">
        <ele>215.17</ele>
        <time>2014-09-11T13:15:36Z</time>
      </trkpt>
      <trkpt lat="44.40506" lon="4.84974">
        <ele>216.02</ele>
        <time>2014-09-11T13:15:51Z</time>
      </trkpt>
      <trkpt lat="44.40505" lon="4.84975">
        <ele>215.6</ele>
        <time>2014-09-11T13:16:21Z</time>
      </trkpt>
      <trkpt lat="44.40503" lon="4.84975">
        <ele>215.76</ele>
        <time>2014-09-11T13:16:24Z</time>
      </trkpt>
      <trkpt lat="44.40502" lon="4.84976">
        <ele>215.91</ele>
        <time>2014-09-11T13:16:25Z</time>
      </trkpt>
      <trkpt lat="44.40501" lon="4.84976">
        <ele>216.08</ele>
        <time>2014-09-11T13:16:26Z</time>
      </trkpt>
      <trkpt lat="44.40502" lon="4.84985">
        <ele>216.8</ele>
        <time>2014-09-11T13:16:30Z</time>
      </trkpt>
      <trkpt lat="44.4053" lon="4.85026">
        <ele>219.46</ele>
        <time>2014-09-11T13:16:43Z</time>
      </trkpt>
      <trkpt lat="44.40533" lon="4.85029">
        <ele>219.69</ele>
        <time>2014-09-11T13:16:44Z</time>
      </trkpt>
      <trkpt lat="44.40535" lon="4.85032">
        <ele>219.84</ele>
        <time>2014-09-11T13:16:45Z</time>
      </trkpt>
      <trkpt lat="44.40538" lon="4.85034">
        <ele>219.95</ele>
        <time>2014-09-11T13:16:46Z</time>
      </trkpt>
      <trkpt lat="44.40541" lon="4.85037">
        <ele>220.06</ele>
        <time>2014-09-11T13:16:47Z</time>
      </trkpt>
      <trkpt lat="44.40544" lon="4.85039">
        <ele>220.18</ele>
        <time>2014-09-11T13:16:48Z</time>
      </trkpt>
      <trkpt lat="44.40546" lon="4.85042">
        <ele>220.38</ele>
        <time>2014-09-11T13:16:49Z</time>
      </trkpt>
      <trkpt lat="44.40549" lon="4.85044">
        <ele>220.7</ele>
        <time>2014-09-11T13:16:50Z</time>
      </trkpt>
      <trkpt lat="44.40554" lon="4.85049">
        <ele>221.37</ele>
        <time>2014-09-11T13:16:52Z</time>
      </trkpt>
      <trkpt lat="44.40557" lon="4.85052">
        <ele>221.68</ele>
        <time>2014-09-11T13:16:53Z</time>
      </trkpt>
      <trkpt lat="44.4056" lon="4.85054">
        <ele>221.97</ele>
        <time>2014-09-11T13:16:54Z</time>
      </trkpt>
      <trkpt lat="44.40562" lon="4.85056">
        <ele>222.19</ele>
        <time>2014-09-11T13:16:55Z</time>
      </trkpt>
      <trkpt lat="44.40565" lon="4.85059">
        <ele>222.46</ele>
        <time>2014-09-11T13:16:56Z</time>
      </trkpt>
      <trkpt lat="44.40568" lon="4.8506">
        <ele>222.85</ele>
        <time>2014-09-11T13:16:57Z</time>
      </trkpt>
      <trkpt lat="44.4057" lon="4.85063">
        <ele>223.27</ele>
        <time>2014-09-11T13:16:58Z</time>
      </trkpt>
      <trkpt lat="44.40573" lon="4.85065">
        <ele>223.67</ele>
        <time>2014-09-11T13:16:59Z</time>
      </trkpt>
      <trkpt lat="44.40578" lon="4.8507">
        <ele>224.24</ele>
        <time>2014-09-11T13:17:01Z</time>
      </trkpt>
      <trkpt lat="44.4058" lon="4.85072">
        <ele>224.24</ele>
        <time>2014-09-11T13:17:02Z</time>
      </trkpt>
      <trkpt lat="44.40583" lon="4.85074">
        <ele>224.53</ele>
        <time>2014-09-11T13:17:03Z</time>
      </trkpt>
      <trkpt lat="44.40595" lon="4.85086">
        <ele>225.65</ele>
        <time>2014-09-11T13:17:08Z</time>
      </trkpt>
      <trkpt lat="44.40612" lon="4.85105">
        <ele>226.67</ele>
        <time>2014-09-11T13:17:14Z</time>
      </trkpt>
      <trkpt lat="44.40633" lon="4.85128">
        <ele>229.21</ele>
        <time>2014-09-11T13:17:21Z</time>
      </trkpt>
      <trkpt lat="44.40655" lon="4.85183">
        <ele>231.94</ele>
        <time>2014-09-11T13:17:37Z</time>
      </trkpt>
      <trkpt lat="44.40657" lon="4.8523">
        <ele>232.57</ele>
        <time>2014-09-11T13:17:46Z</time>
      </trkpt>
      <trkpt lat="44.40659" lon="4.85344">
        <ele>230.55</ele>
        <time>2014-09-11T13:18:01Z</time>
      </trkpt>
      <trkpt lat="44.4066" lon="4.85475">
        <ele>227.51</ele>
        <time>2014-09-11T13:18:17Z</time>
      </trkpt>
      <trkpt lat="44.40661" lon="4.85484">
        <ele>227.25</ele>
        <time>2014-09-11T13:18:18Z</time>
      </trkpt>
      <trkpt lat="44.40664" lon="4.85545">
        <ele>228.07</ele>
        <time>2014-09-11T13:18:25Z</time>
      </trkpt>
      <trkpt lat="44.40664" lon="4.85554">
        <ele>228.16</ele>
        <time>2014-09-11T13:18:26Z</time>
      </trkpt>
      <trkpt lat="44.40664" lon="4.85562">
        <ele>228.06</ele>
        <time>2014-09-11T13:18:27Z</time>
      </trkpt>
      <trkpt lat="44.40663" lon="4.85571">
        <ele>227.72</ele>
        <time>2014-09-11T13:18:28Z</time>
      </trkpt>
      <trkpt lat="44.40663" lon="4.85695">
        <ele>224.99</ele>
        <time>2014-09-11T13:18:42Z</time>
      </trkpt>
      <trkpt lat="44.40663" lon="4.85781">
        <ele>221.75</ele>
        <time>2014-09-11T13:18:50Z</time>
      </trkpt>
      <trkpt lat="44.40663" lon="4.85876">
        <ele>218.44</ele>
        <time>2014-09-11T13:18:58Z</time>
      </trkpt>
      <trkpt lat="44.40664" lon="4.85935">
        <ele>216.4</ele>
        <time>2014-09-11T13:19:03Z</time>
      </trkpt>
      <trkpt lat="44.40665" lon="4.86086">
        <ele>213.36</ele>
        <time>2014-09-11T13:19:15Z</time>
      </trkpt>
      <trkpt lat="44.40667" lon="4.86187">
        <ele>209.74</ele>
        <time>2014-09-11T13:19:23Z</time>
      </trkpt>
      <trkpt lat="44.40667" lon="4.86248">
        <ele>206.25</ele>
        <time>2014-09-11T13:19:28Z</time>
      </trkpt>
      <trkpt lat="44.40667" lon="4.86259">
        <ele>205.76</ele>
        <time>2014-09-11T13:19:29Z</time>
      </trkpt>
      <trkpt lat="44.40669" lon="4.86304">
        <ele>203.02</ele>
        <time>2014-09-11T13:19:33Z</time>
      </trkpt>
      <trkpt lat="44.40672" lon="4.86332">
        <ele>201.62</ele>
        <time>2014-09-11T13:19:36Z</time>
      </trkpt>
      <trkpt lat="44.40678" lon="4.86355">
        <ele>199.61</ele>
        <time>2014-09-11T13:19:39Z</time>
      </trkpt>
      <trkpt lat="44.40703" lon="4.86445">
        <ele>196.47</ele>
        <time>2014-09-11T13:19:50Z</time>
      </trkpt>
      <trkpt lat="44.40728" lon="4.86542">
        <ele>193.43</ele>
        <time>2014-09-11T13:20:02Z</time>
      </trkpt>
      <trkpt lat="44.4074" lon="4.86591">
        <ele>193.06</ele>
        <time>2014-09-11T13:20:08Z</time>
      </trkpt>
      <trkpt lat="44.40758" lon="4.86667">
        <ele>192.39</ele>
        <time>2014-09-11T13:20:17Z</time>
      </trkpt>
      <trkpt lat="44.4081" lon="4.86788">
        <ele>190.02</ele>
        <time>2014-09-11T13:20:33Z</time>
      </trkpt>
      <trkpt lat="44.40847" lon="4.86873">
        <ele>187.43</ele>
        <time>2014-09-11T13:20:44Z</time>
      </trkpt>
      <trkpt lat="44.4085" lon="4.86881">
        <ele>187.36</ele>
        <time>2014-09-11T13:20:45Z</time>
      </trkpt>
      <trkpt lat="44.40854" lon="4.86889">
        <ele>187.32</ele>
        <time>2014-09-11T13:20:46Z</time>
      </trkpt>
      <trkpt lat="44.40857" lon="4.86897">
        <ele>187.3</ele>
        <time>2014-09-11T13:20:47Z</time>
      </trkpt>
      <trkpt lat="44.40861" lon="4.86906">
        <ele>187.2</ele>
        <time>2014-09-11T13:20:48Z</time>
      </trkpt>
      <trkpt lat="44.40905" lon="4.87009">
        <ele>184.57</ele>
        <time>2014-09-11T13:21:00Z</time>
      </trkpt>
      <trkpt lat="44.4092" lon="4.87043">
        <ele>184</ele>
        <time>2014-09-11T13:21:04Z</time>
      </trkpt>
      <trkpt lat="44.40923" lon="4.87052">
        <ele>183.9</ele>
        <time>2014-09-11T13:21:05Z</time>
      </trkpt>
      <trkpt lat="44.40962" lon="4.87136">
        <ele>182.85</ele>
        <time>2014-09-11T13:21:15Z</time>
      </trkpt>
      <trkpt lat="44.40966" lon="4.87144">
        <ele>182.94</ele>
        <time>2014-09-11T13:21:16Z</time>
      </trkpt>
      <trkpt lat="44.41016" lon="4.87257">
        <ele>181.99</ele>
        <time>2014-09-11T13:21:30Z</time>
      </trkpt>
      <trkpt lat="44.41065" lon="4.87374">
        <ele>180.78</ele>
        <time>2014-09-11T13:21:44Z</time>
      </trkpt>
      <trkpt lat="44.41076" lon="4.87397">
        <ele>180.64</ele>
        <time>2014-09-11T13:21:47Z</time>
      </trkpt>
      <trkpt lat="44.4108" lon="4.87405">
        <ele>180.54</ele>
        <time>2014-09-11T13:21:48Z</time>
      </trkpt>
      <trkpt lat="44.4109" lon="4.87429">
        <ele>180.23</ele>
        <time>2014-09-11T13:21:51Z</time>
      </trkpt>
      <trkpt lat="44.41094" lon="4.87436">
        <ele>180.31</ele>
        <time>2014-09-11T13:21:52Z</time>
      </trkpt>
      <trkpt lat="44.41146" lon="4.87559">
        <ele>179.58</ele>
        <time>2014-09-11T13:22:10Z</time>
      </trkpt>
      <trkpt lat="44.41152" lon="4.87571">
        <ele>179.46</ele>
        <time>2014-09-11T13:22:12Z</time>
      </trkpt>
      <trkpt lat="44.41154" lon="4.87578">
        <ele>179.41</ele>
        <time>2014-09-11T13:22:13Z</time>
      </trkpt>
      <trkpt lat="44.41169" lon="4.87608">
        <ele>179.15</ele>
        <time>2014-09-11T13:22:18Z</time>
      </trkpt>
      <trkpt lat="44.41171" lon="4.87614">
        <ele>178.91</ele>
        <time>2014-09-11T13:22:19Z</time>
      </trkpt>
      <trkpt lat="44.41174" lon="4.8762">
        <ele>178.79</ele>
        <time>2014-09-11T13:22:20Z</time>
      </trkpt>
      <trkpt lat="44.41176" lon="4.87626">
        <ele>178.6</ele>
        <time>2014-09-11T13:22:21Z</time>
      </trkpt>
      <trkpt lat="44.41185" lon="4.87649">
        <ele>178.65</ele>
        <time>2014-09-11T13:22:25Z</time>
      </trkpt>
      <trkpt lat="44.4119" lon="4.8766">
        <ele>178.72</ele>
        <time>2014-09-11T13:22:27Z</time>
      </trkpt>
      <trkpt lat="44.41193" lon="4.87666">
        <ele>178.79</ele>
        <time>2014-09-11T13:22:28Z</time>
      </trkpt>
      <trkpt lat="44.41236" lon="4.87764">
        <ele>178</ele>
        <time>2014-09-11T13:22:42Z</time>
      </trkpt>
      <trkpt lat="44.41262" lon="4.87824">
        <ele>177.88</ele>
        <time>2014-09-11T13:22:50Z</time>
      </trkpt>
      <trkpt lat="44.41265" lon="4.87839">
        <ele>177.46</ele>
        <time>2014-09-11T13:22:52Z</time>
      </trkpt>
      <trkpt lat="44.41268" lon="4.87865">
        <ele>176.55</ele>
        <time>2014-09-11T13:22:55Z</time>
      </trkpt>
      <trkpt lat="44.4126" lon="4.88014">
        <ele>176.3</ele>
        <time>2014-09-11T13:23:12Z</time>
      </trkpt>
      <trkpt lat="44.41252" lon="4.88157">
        <ele>174.45</ele>
        <time>2014-09-11T13:23:26Z</time>
      </trkpt>
      <trkpt lat="44.4124" lon="4.88328">
        <ele>173.98</ele>
        <time>2014-09-11T13:23:44Z</time>
      </trkpt>
      <trkpt lat="44.41231" lon="4.88475">
        <ele>172.99</ele>
        <time>2014-09-11T13:24:01Z</time>
      </trkpt>
      <trkpt lat="44.41222" lon="4.88615">
        <ele>172.7</ele>
        <time>2014-09-11T13:24:19Z</time>
      </trkpt>
      <trkpt lat="44.41218" lon="4.88672">
        <ele>173.24</ele>
        <time>2014-09-11T13:24:26Z</time>
      </trkpt>
      <trkpt lat="44.41218" lon="4.88679">
        <ele>173.75</ele>
        <time>2014-09-11T13:24:27Z</time>
      </trkpt>
      <trkpt lat="44.41216" lon="4.88701">
        <ele>175.32</ele>
        <time>2014-09-11T13:24:30Z</time>
      </trkpt>
      <trkpt lat="44.41217" lon="4.88724">
        <ele>175.23</ele>
        <time>2014-09-11T13:24:33Z</time>
      </trkpt>
      <trkpt lat="44.41218" lon="4.88731">
        <ele>174.98</ele>
        <time>2014-09-11T13:24:34Z</time>
      </trkpt>
      <trkpt lat="44.41222" lon="4.88811">
        <ele>176.83</ele>
        <time>2014-09-11T13:24:48Z</time>
      </trkpt>
      <trkpt lat="44.41204" lon="4.88843">
        <ele>179.16</ele>
        <time>2014-09-11T13:24:57Z</time>
      </trkpt>
      <trkpt lat="44.41203" lon="4.88847">
        <ele>179.3</ele>
        <time>2014-09-11T13:24:58Z</time>
      </trkpt>
      <trkpt lat="44.41202" lon="4.88851">
        <ele>179.41</ele>
        <time>2014-09-11T13:24:59Z</time>
      </trkpt>
      <trkpt lat="44.412" lon="4.88905">
        <ele>181.96</ele>
        <time>2014-09-11T13:25:12Z</time>
      </trkpt>
      <trkpt lat="44.41208" lon="4.88948">
        <ele>184.69</ele>
        <time>2014-09-11T13:25:24Z</time>
      </trkpt>
      <trkpt lat="44.41201" lon="4.89024">
        <ele>183.66</ele>
        <time>2014-09-11T13:25:39Z</time>
      </trkpt>
      <trkpt lat="44.41199" lon="4.8903">
        <ele>183.66</ele>
        <time>2014-09-11T13:25:40Z</time>
      </trkpt>
      <trkpt lat="44.41198" lon="4.89035">
        <ele>183.72</ele>
        <time>2014-09-11T13:25:41Z</time>
      </trkpt>
      <trkpt lat="44.41193" lon="4.89054">
        <ele>183.69</ele>
        <time>2014-09-11T13:25:44Z</time>
      </trkpt>
      <trkpt lat="44.41187" lon="4.89072">
        <ele>183.76</ele>
        <time>2014-09-11T13:25:47Z</time>
      </trkpt>
      <trkpt lat="44.41184" lon="4.89077">
        <ele>183.94</ele>
        <time>2014-09-11T13:25:48Z</time>
      </trkpt>
      <trkpt lat="44.41176" lon="4.89091">
        <ele>184.21</ele>
        <time>2014-09-11T13:25:51Z</time>
      </trkpt>
      <trkpt lat="44.41166" lon="4.89112">
        <ele>184.2</ele>
        <time>2014-09-11T13:25:55Z</time>
      </trkpt>
      <trkpt lat="44.4116" lon="4.8912">
        <ele>184.19</ele>
        <time>2014-09-11T13:25:57Z</time>
      </trkpt>
      <trkpt lat="44.41156" lon="4.89121">
        <ele>184.12</ele>
        <time>2014-09-11T13:25:58Z</time>
      </trkpt>
      <trkpt lat="44.41143" lon="4.89123">
        <ele>183.46</ele>
        <time>2014-09-11T13:26:02Z</time>
      </trkpt>
      <trkpt lat="44.4112" lon="4.89111">
        <ele>183.62</ele>
        <time>2014-09-11T13:26:10Z</time>
      </trkpt>
      <trkpt lat="44.41102" lon="4.89112">
        <ele>183.83</ele>
        <time>2014-09-11T13:26:14Z</time>
      </trkpt>
      <trkpt lat="44.41064" lon="4.89114">
        <ele>183.34</ele>
        <time>2014-09-11T13:26:22Z</time>
      </trkpt>
      <trkpt lat="44.41052" lon="4.89117">
        <ele>183.3</ele>
        <time>2014-09-11T13:26:25Z</time>
      </trkpt>
      <trkpt lat="44.41042" lon="4.89122">
        <ele>183.46</ele>
        <time>2014-09-11T13:26:28Z</time>
      </trkpt>
      <trkpt lat="44.41031" lon="4.89125">
        <ele>183.59</ele>
        <time>2014-09-11T13:26:33Z</time>
      </trkpt>
    </trkseg>
  </trk>
</gpx>